<?xml version="1.0" encoding="UTF-8" standalone="no" ?>
<gpx xmlns="http://www.topografix.com/GPX/1/1" xmlns:xsi="http://www.w3.org/2001/XMLSchema-instance" xsi:schemaLocation="http://www.topografix.com/GPX/1/1 http://www.topografix.com/GPX/1/1/gpx.xsd" version="1.1" creator="VisuGPX - https://www.visugpx.com">
  <metadata>
    <name>Pic Charvet</name>
    <desc><![CDATA[Pic Charvet depuis Tournefort]]></desc>
  </metadata>
  <trk>
    <name><![CDATA[Tracé actuel: 09 MARS 2015 11:07]]></name>
    <trkseg>
      <trkpt lat="43.94563" lon="7.15013">
        <ele>544.24</ele>
        <time>2015-03-09T10:07:26Z</time>
      </trkpt>
      <trkpt lat="43.94563" lon="7.15012">
        <ele>544.24</ele>
        <time>2015-03-09T10:07:27Z</time>
      </trkpt>
      <trkpt lat="43.94562" lon="7.15012">
        <ele>548.09</ele>
        <time>2015-03-09T10:07:43Z</time>
      </trkpt>
      <trkpt lat="43.94563" lon="7.15011">
        <ele>550.01</ele>
        <time>2015-03-09T10:08:08Z</time>
      </trkpt>
      <trkpt lat="43.94564" lon="7.15013">
        <ele>550.01</ele>
        <time>2015-03-09T10:08:19Z</time>
      </trkpt>
      <trkpt lat="43.94562" lon="7.15014">
        <ele>549.53</ele>
        <time>2015-03-09T10:08:30Z</time>
      </trkpt>
      <trkpt lat="43.94561" lon="7.15015">
        <ele>550.01</ele>
        <time>2015-03-09T10:08:47Z</time>
      </trkpt>
      <trkpt lat="43.9456" lon="7.15015">
        <ele>550.49</ele>
        <time>2015-03-09T10:09:03Z</time>
      </trkpt>
      <trkpt lat="43.9456" lon="7.15013">
        <ele>550.49</ele>
        <time>2015-03-09T10:09:19Z</time>
      </trkpt>
      <trkpt lat="43.94559" lon="7.15013">
        <ele>550.49</ele>
        <time>2015-03-09T10:09:31Z</time>
      </trkpt>
      <trkpt lat="43.94553" lon="7.15008">
        <ele>552.41</ele>
        <time>2015-03-09T10:09:46Z</time>
      </trkpt>
      <trkpt lat="43.9455" lon="7.15011">
        <ele>552.9</ele>
        <time>2015-03-09T10:09:57Z</time>
      </trkpt>
      <trkpt lat="43.9455" lon="7.15017">
        <ele>553.38</ele>
        <time>2015-03-09T10:10:06Z</time>
      </trkpt>
      <trkpt lat="43.9455" lon="7.15018">
        <ele>553.86</ele>
        <time>2015-03-09T10:10:07Z</time>
      </trkpt>
      <trkpt lat="43.94549" lon="7.15023">
        <ele>553.86</ele>
        <time>2015-03-09T10:10:11Z</time>
      </trkpt>
      <trkpt lat="43.9455" lon="7.15034">
        <ele>556.26</ele>
        <time>2015-03-09T10:10:22Z</time>
      </trkpt>
      <trkpt lat="43.94551" lon="7.15036">
        <ele>556.74</ele>
        <time>2015-03-09T10:10:24Z</time>
      </trkpt>
      <trkpt lat="43.94556" lon="7.15045">
        <ele>558.18</ele>
        <time>2015-03-09T10:10:35Z</time>
      </trkpt>
      <trkpt lat="43.94556" lon="7.15055">
        <ele>560.11</ele>
        <time>2015-03-09T10:10:46Z</time>
      </trkpt>
      <trkpt lat="43.94554" lon="7.15063">
        <ele>562.03</ele>
        <time>2015-03-09T10:10:55Z</time>
      </trkpt>
      <trkpt lat="43.94549" lon="7.15071">
        <ele>563.47</ele>
        <time>2015-03-09T10:11:07Z</time>
      </trkpt>
      <trkpt lat="43.94546" lon="7.15079">
        <ele>564.91</ele>
        <time>2015-03-09T10:11:16Z</time>
      </trkpt>
      <trkpt lat="43.94547" lon="7.15088">
        <ele>565.87</ele>
        <time>2015-03-09T10:11:25Z</time>
      </trkpt>
      <trkpt lat="43.94551" lon="7.15095">
        <ele>567.32</ele>
        <time>2015-03-09T10:11:33Z</time>
      </trkpt>
      <trkpt lat="43.94553" lon="7.15105">
        <ele>568.76</ele>
        <time>2015-03-09T10:11:46Z</time>
      </trkpt>
      <trkpt lat="43.94557" lon="7.15109">
        <ele>569.72</ele>
        <time>2015-03-09T10:11:57Z</time>
      </trkpt>
      <trkpt lat="43.94558" lon="7.1511">
        <ele>569.72</ele>
        <time>2015-03-09T10:12:18Z</time>
      </trkpt>
      <trkpt lat="43.94556" lon="7.15111">
        <ele>569.72</ele>
        <time>2015-03-09T10:12:26Z</time>
      </trkpt>
      <trkpt lat="43.94551" lon="7.15109">
        <ele>569.72</ele>
        <time>2015-03-09T10:12:30Z</time>
      </trkpt>
      <trkpt lat="43.94543" lon="7.15105">
        <ele>571.64</ele>
        <time>2015-03-09T10:12:42Z</time>
      </trkpt>
      <trkpt lat="43.94536" lon="7.15107">
        <ele>573.08</ele>
        <time>2015-03-09T10:12:51Z</time>
      </trkpt>
      <trkpt lat="43.94528" lon="7.15111">
        <ele>575.01</ele>
        <time>2015-03-09T10:13:01Z</time>
      </trkpt>
      <trkpt lat="43.94524" lon="7.1511">
        <ele>575.49</ele>
        <time>2015-03-09T10:13:06Z</time>
      </trkpt>
      <trkpt lat="43.94516" lon="7.15111">
        <ele>577.89</ele>
        <time>2015-03-09T10:13:17Z</time>
      </trkpt>
      <trkpt lat="43.94517" lon="7.15117">
        <ele>579.81</ele>
        <time>2015-03-09T10:13:28Z</time>
      </trkpt>
      <trkpt lat="43.94512" lon="7.15117">
        <ele>581.73</ele>
        <time>2015-03-09T10:13:37Z</time>
      </trkpt>
      <trkpt lat="43.94506" lon="7.15122">
        <ele>583.66</ele>
        <time>2015-03-09T10:13:48Z</time>
      </trkpt>
      <trkpt lat="43.945" lon="7.15125">
        <ele>585.1</ele>
        <time>2015-03-09T10:13:57Z</time>
      </trkpt>
      <trkpt lat="43.94496" lon="7.15132">
        <ele>587.02</ele>
        <time>2015-03-09T10:14:08Z</time>
      </trkpt>
      <trkpt lat="43.94492" lon="7.15137">
        <ele>588.46</ele>
        <time>2015-03-09T10:14:18Z</time>
      </trkpt>
      <trkpt lat="43.94485" lon="7.1514">
        <ele>590.39</ele>
        <time>2015-03-09T10:14:28Z</time>
      </trkpt>
      <trkpt lat="43.94481" lon="7.15145">
        <ele>591.83</ele>
        <time>2015-03-09T10:14:38Z</time>
      </trkpt>
      <trkpt lat="43.94473" lon="7.15151">
        <ele>593.75</ele>
        <time>2015-03-09T10:14:50Z</time>
      </trkpt>
      <trkpt lat="43.94466" lon="7.15156">
        <ele>594.71</ele>
        <time>2015-03-09T10:15:00Z</time>
      </trkpt>
      <trkpt lat="43.94461" lon="7.15162">
        <ele>595.67</ele>
        <time>2015-03-09T10:15:09Z</time>
      </trkpt>
      <trkpt lat="43.94456" lon="7.15171">
        <ele>596.64</ele>
        <time>2015-03-09T10:15:19Z</time>
      </trkpt>
      <trkpt lat="43.94453" lon="7.15181">
        <ele>597.6</ele>
        <time>2015-03-09T10:15:30Z</time>
      </trkpt>
      <trkpt lat="43.94447" lon="7.1519">
        <ele>599.04</ele>
        <time>2015-03-09T10:15:41Z</time>
      </trkpt>
      <trkpt lat="43.94442" lon="7.152">
        <ele>600.48</ele>
        <time>2015-03-09T10:15:51Z</time>
      </trkpt>
      <trkpt lat="43.94441" lon="7.15209">
        <ele>601.92</ele>
        <time>2015-03-09T10:16:03Z</time>
      </trkpt>
      <trkpt lat="43.94436" lon="7.1522">
        <ele>603.85</ele>
        <time>2015-03-09T10:16:14Z</time>
      </trkpt>
      <trkpt lat="43.94432" lon="7.15231">
        <ele>605.29</ele>
        <time>2015-03-09T10:16:26Z</time>
      </trkpt>
      <trkpt lat="43.9443" lon="7.15238">
        <ele>607.69</ele>
        <time>2015-03-09T10:16:36Z</time>
      </trkpt>
      <trkpt lat="43.9443" lon="7.15251">
        <ele>609.61</ele>
        <time>2015-03-09T10:16:49Z</time>
      </trkpt>
      <trkpt lat="43.94424" lon="7.15263">
        <ele>612.02</ele>
        <time>2015-03-09T10:17:02Z</time>
      </trkpt>
      <trkpt lat="43.94421" lon="7.1527">
        <ele>614.9</ele>
        <time>2015-03-09T10:17:16Z</time>
      </trkpt>
      <trkpt lat="43.94416" lon="7.15282">
        <ele>616.34</ele>
        <time>2015-03-09T10:17:27Z</time>
      </trkpt>
      <trkpt lat="43.94412" lon="7.15289">
        <ele>617.78</ele>
        <time>2015-03-09T10:17:38Z</time>
      </trkpt>
      <trkpt lat="43.94413" lon="7.1529">
        <ele>618.26</ele>
        <time>2015-03-09T10:17:45Z</time>
      </trkpt>
      <trkpt lat="43.94418" lon="7.15283">
        <ele>619.71</ele>
        <time>2015-03-09T10:17:56Z</time>
      </trkpt>
      <trkpt lat="43.94421" lon="7.15278">
        <ele>621.15</ele>
        <time>2015-03-09T10:18:05Z</time>
      </trkpt>
      <trkpt lat="43.94426" lon="7.15273">
        <ele>622.59</ele>
        <time>2015-03-09T10:18:13Z</time>
      </trkpt>
      <trkpt lat="43.9443" lon="7.15266">
        <ele>623.55</ele>
        <time>2015-03-09T10:18:21Z</time>
      </trkpt>
      <trkpt lat="43.94434" lon="7.15262">
        <ele>624.51</ele>
        <time>2015-03-09T10:18:29Z</time>
      </trkpt>
      <trkpt lat="43.94435" lon="7.15262">
        <ele>624.99</ele>
        <time>2015-03-09T10:18:30Z</time>
      </trkpt>
      <trkpt lat="43.94441" lon="7.15257">
        <ele>625.96</ele>
        <time>2015-03-09T10:18:40Z</time>
      </trkpt>
      <trkpt lat="43.94444" lon="7.15244">
        <ele>626.44</ele>
        <time>2015-03-09T10:18:51Z</time>
      </trkpt>
      <trkpt lat="43.94448" lon="7.15234">
        <ele>626.92</ele>
        <time>2015-03-09T10:19:02Z</time>
      </trkpt>
      <trkpt lat="43.9445" lon="7.15229">
        <ele>627.4</ele>
        <time>2015-03-09T10:19:13Z</time>
      </trkpt>
      <trkpt lat="43.94451" lon="7.15227">
        <ele>627.4</ele>
        <time>2015-03-09T10:19:23Z</time>
      </trkpt>
      <trkpt lat="43.94455" lon="7.1522">
        <ele>627.4</ele>
        <time>2015-03-09T10:19:34Z</time>
      </trkpt>
      <trkpt lat="43.94458" lon="7.15218">
        <ele>627.4</ele>
        <time>2015-03-09T10:19:45Z</time>
      </trkpt>
      <trkpt lat="43.94458" lon="7.15218">
        <ele>627.4</ele>
        <time>2015-03-09T10:20:08Z</time>
      </trkpt>
      <trkpt lat="43.94458" lon="7.15218">
        <ele>627.4</ele>
        <time>2015-03-09T10:20:19Z</time>
      </trkpt>
      <trkpt lat="43.9446" lon="7.15209">
        <ele>627.4</ele>
        <time>2015-03-09T10:20:31Z</time>
      </trkpt>
      <trkpt lat="43.94464" lon="7.15205">
        <ele>627.4</ele>
        <time>2015-03-09T10:20:41Z</time>
      </trkpt>
      <trkpt lat="43.94464" lon="7.15205">
        <ele>627.4</ele>
        <time>2015-03-09T10:21:05Z</time>
      </trkpt>
      <trkpt lat="43.94465" lon="7.15205">
        <ele>627.4</ele>
        <time>2015-03-09T10:21:22Z</time>
      </trkpt>
      <trkpt lat="43.94465" lon="7.15205">
        <ele>627.4</ele>
        <time>2015-03-09T10:21:35Z</time>
      </trkpt>
      <trkpt lat="43.94465" lon="7.15205">
        <ele>627.4</ele>
        <time>2015-03-09T10:22:03Z</time>
      </trkpt>
      <trkpt lat="43.94465" lon="7.15206">
        <ele>627.4</ele>
        <time>2015-03-09T10:22:24Z</time>
      </trkpt>
      <trkpt lat="43.94465" lon="7.15204">
        <ele>626.92</ele>
        <time>2015-03-09T10:22:35Z</time>
      </trkpt>
      <trkpt lat="43.94467" lon="7.15207">
        <ele>627.4</ele>
        <time>2015-03-09T10:22:47Z</time>
      </trkpt>
      <trkpt lat="43.94464" lon="7.15218">
        <ele>626.44</ele>
        <time>2015-03-09T10:22:58Z</time>
      </trkpt>
      <trkpt lat="43.94463" lon="7.1522">
        <ele>626.44</ele>
        <time>2015-03-09T10:23:00Z</time>
      </trkpt>
      <trkpt lat="43.94462" lon="7.15225">
        <ele>626.44</ele>
        <time>2015-03-09T10:23:09Z</time>
      </trkpt>
      <trkpt lat="43.9446" lon="7.15228">
        <ele>626.44</ele>
        <time>2015-03-09T10:23:21Z</time>
      </trkpt>
      <trkpt lat="43.94458" lon="7.1523">
        <ele>626.44</ele>
        <time>2015-03-09T10:23:24Z</time>
      </trkpt>
      <trkpt lat="43.94456" lon="7.1524">
        <ele>626.44</ele>
        <time>2015-03-09T10:23:34Z</time>
      </trkpt>
      <trkpt lat="43.94456" lon="7.15243">
        <ele>625.96</ele>
        <time>2015-03-09T10:23:38Z</time>
      </trkpt>
      <trkpt lat="43.94452" lon="7.15246">
        <ele>626.92</ele>
        <time>2015-03-09T10:23:47Z</time>
      </trkpt>
      <trkpt lat="43.94452" lon="7.15248">
        <ele>627.4</ele>
        <time>2015-03-09T10:23:59Z</time>
      </trkpt>
      <trkpt lat="43.94453" lon="7.15246">
        <ele>626.92</ele>
        <time>2015-03-09T10:24:18Z</time>
      </trkpt>
      <trkpt lat="43.94455" lon="7.15244">
        <ele>626.92</ele>
        <time>2015-03-09T10:24:20Z</time>
      </trkpt>
      <trkpt lat="43.94456" lon="7.15248">
        <ele>625.96</ele>
        <time>2015-03-09T10:24:24Z</time>
      </trkpt>
      <trkpt lat="43.94455" lon="7.1525">
        <ele>625.96</ele>
        <time>2015-03-09T10:24:33Z</time>
      </trkpt>
      <trkpt lat="43.94455" lon="7.15249">
        <ele>625.96</ele>
        <time>2015-03-09T10:24:55Z</time>
      </trkpt>
      <trkpt lat="43.94456" lon="7.15259">
        <ele>624.99</ele>
        <time>2015-03-09T10:25:10Z</time>
      </trkpt>
      <trkpt lat="43.94456" lon="7.15276">
        <ele>624.51</ele>
        <time>2015-03-09T10:25:23Z</time>
      </trkpt>
      <trkpt lat="43.94455" lon="7.15294">
        <ele>624.51</ele>
        <time>2015-03-09T10:25:37Z</time>
      </trkpt>
      <trkpt lat="43.94455" lon="7.15311">
        <ele>622.59</ele>
        <time>2015-03-09T10:25:50Z</time>
      </trkpt>
      <trkpt lat="43.94454" lon="7.15313">
        <ele>621.63</ele>
        <time>2015-03-09T10:26:00Z</time>
      </trkpt>
      <trkpt lat="43.94453" lon="7.15314">
        <ele>621.63</ele>
        <time>2015-03-09T10:26:26Z</time>
      </trkpt>
      <trkpt lat="43.9445" lon="7.15315">
        <ele>621.15</ele>
        <time>2015-03-09T10:26:45Z</time>
      </trkpt>
      <trkpt lat="43.94446" lon="7.15313">
        <ele>619.71</ele>
        <time>2015-03-09T10:26:50Z</time>
      </trkpt>
      <trkpt lat="43.94438" lon="7.15314">
        <ele>618.26</ele>
        <time>2015-03-09T10:26:58Z</time>
      </trkpt>
      <trkpt lat="43.9443" lon="7.15322">
        <ele>615.86</ele>
        <time>2015-03-09T10:27:07Z</time>
      </trkpt>
      <trkpt lat="43.94427" lon="7.15328">
        <ele>614.42</ele>
        <time>2015-03-09T10:27:12Z</time>
      </trkpt>
      <trkpt lat="43.94424" lon="7.15334">
        <ele>613.46</ele>
        <time>2015-03-09T10:27:17Z</time>
      </trkpt>
      <trkpt lat="43.94422" lon="7.15336">
        <ele>612.98</ele>
        <time>2015-03-09T10:27:19Z</time>
      </trkpt>
      <trkpt lat="43.94419" lon="7.15343">
        <ele>612.98</ele>
        <time>2015-03-09T10:27:23Z</time>
      </trkpt>
      <trkpt lat="43.94413" lon="7.15357">
        <ele>612.98</ele>
        <time>2015-03-09T10:27:34Z</time>
      </trkpt>
      <trkpt lat="43.94409" lon="7.1536">
        <ele>612.98</ele>
        <time>2015-03-09T10:27:39Z</time>
      </trkpt>
      <trkpt lat="43.94406" lon="7.15364">
        <ele>611.54</ele>
        <time>2015-03-09T10:27:50Z</time>
      </trkpt>
      <trkpt lat="43.94405" lon="7.1536">
        <ele>612.98</ele>
        <time>2015-03-09T10:27:54Z</time>
      </trkpt>
      <trkpt lat="43.94403" lon="7.15356">
        <ele>615.38</ele>
        <time>2015-03-09T10:28:03Z</time>
      </trkpt>
      <trkpt lat="43.944" lon="7.15361">
        <ele>617.3</ele>
        <time>2015-03-09T10:28:12Z</time>
      </trkpt>
      <trkpt lat="43.94399" lon="7.15356">
        <ele>616.82</ele>
        <time>2015-03-09T10:28:24Z</time>
      </trkpt>
      <trkpt lat="43.94395" lon="7.15355">
        <ele>617.3</ele>
        <time>2015-03-09T10:28:35Z</time>
      </trkpt>
      <trkpt lat="43.94395" lon="7.15355">
        <ele>617.3</ele>
        <time>2015-03-09T10:28:52Z</time>
      </trkpt>
      <trkpt lat="43.94399" lon="7.15356">
        <ele>617.3</ele>
        <time>2015-03-09T10:29:09Z</time>
      </trkpt>
      <trkpt lat="43.94402" lon="7.15358">
        <ele>615.38</ele>
        <time>2015-03-09T10:29:19Z</time>
      </trkpt>
      <trkpt lat="43.94405" lon="7.15361">
        <ele>613.46</ele>
        <time>2015-03-09T10:29:27Z</time>
      </trkpt>
      <trkpt lat="43.94405" lon="7.15365">
        <ele>611.54</ele>
        <time>2015-03-09T10:29:31Z</time>
      </trkpt>
      <trkpt lat="43.94403" lon="7.15368">
        <ele>611.06</ele>
        <time>2015-03-09T10:29:42Z</time>
      </trkpt>
      <trkpt lat="43.94394" lon="7.15373">
        <ele>611.06</ele>
        <time>2015-03-09T10:29:52Z</time>
      </trkpt>
      <trkpt lat="43.94385" lon="7.15377">
        <ele>612.5</ele>
        <time>2015-03-09T10:30:02Z</time>
      </trkpt>
      <trkpt lat="43.94382" lon="7.1538">
        <ele>613.46</ele>
        <time>2015-03-09T10:30:13Z</time>
      </trkpt>
      <trkpt lat="43.94381" lon="7.15382">
        <ele>613.46</ele>
        <time>2015-03-09T10:30:32Z</time>
      </trkpt>
      <trkpt lat="43.94377" lon="7.15377">
        <ele>612.02</ele>
        <time>2015-03-09T10:30:46Z</time>
      </trkpt>
      <trkpt lat="43.94374" lon="7.1537">
        <ele>610.57</ele>
        <time>2015-03-09T10:30:56Z</time>
      </trkpt>
      <trkpt lat="43.94377" lon="7.15362">
        <ele>610.09</ele>
        <time>2015-03-09T10:31:06Z</time>
      </trkpt>
      <trkpt lat="43.94377" lon="7.15358">
        <ele>609.61</ele>
        <time>2015-03-09T10:31:17Z</time>
      </trkpt>
      <trkpt lat="43.94374" lon="7.15365">
        <ele>610.09</ele>
        <time>2015-03-09T10:31:32Z</time>
      </trkpt>
      <trkpt lat="43.94369" lon="7.15378">
        <ele>610.57</ele>
        <time>2015-03-09T10:31:43Z</time>
      </trkpt>
      <trkpt lat="43.94367" lon="7.15382">
        <ele>610.57</ele>
        <time>2015-03-09T10:31:57Z</time>
      </trkpt>
      <trkpt lat="43.94364" lon="7.1539">
        <ele>610.57</ele>
        <time>2015-03-09T10:32:08Z</time>
      </trkpt>
      <trkpt lat="43.94361" lon="7.1539">
        <ele>610.57</ele>
        <time>2015-03-09T10:32:29Z</time>
      </trkpt>
      <trkpt lat="43.94364" lon="7.15387">
        <ele>610.57</ele>
        <time>2015-03-09T10:32:48Z</time>
      </trkpt>
      <trkpt lat="43.94367" lon="7.15386">
        <ele>610.57</ele>
        <time>2015-03-09T10:33:06Z</time>
      </trkpt>
      <trkpt lat="43.94365" lon="7.15387">
        <ele>610.57</ele>
        <time>2015-03-09T10:33:23Z</time>
      </trkpt>
      <trkpt lat="43.94367" lon="7.15383">
        <ele>610.57</ele>
        <time>2015-03-09T10:33:37Z</time>
      </trkpt>
      <trkpt lat="43.94366" lon="7.15382">
        <ele>610.57</ele>
        <time>2015-03-09T10:33:55Z</time>
      </trkpt>
      <trkpt lat="43.94365" lon="7.15383">
        <ele>610.57</ele>
        <time>2015-03-09T10:34:13Z</time>
      </trkpt>
      <trkpt lat="43.94365" lon="7.15383">
        <ele>610.57</ele>
        <time>2015-03-09T10:34:28Z</time>
      </trkpt>
      <trkpt lat="43.94366" lon="7.15383">
        <ele>610.09</ele>
        <time>2015-03-09T10:34:38Z</time>
      </trkpt>
      <trkpt lat="43.94369" lon="7.1538">
        <ele>610.09</ele>
        <time>2015-03-09T10:34:54Z</time>
      </trkpt>
      <trkpt lat="43.94367" lon="7.15376">
        <ele>608.65</ele>
        <time>2015-03-09T10:35:03Z</time>
      </trkpt>
      <trkpt lat="43.94361" lon="7.15378">
        <ele>606.73</ele>
        <time>2015-03-09T10:35:12Z</time>
      </trkpt>
      <trkpt lat="43.94358" lon="7.15377">
        <ele>606.25</ele>
        <time>2015-03-09T10:35:15Z</time>
      </trkpt>
      <trkpt lat="43.94349" lon="7.15381">
        <ele>606.25</ele>
        <time>2015-03-09T10:35:24Z</time>
      </trkpt>
      <trkpt lat="43.94348" lon="7.15383">
        <ele>606.73</ele>
        <time>2015-03-09T10:35:34Z</time>
      </trkpt>
      <trkpt lat="43.94354" lon="7.15379">
        <ele>606.25</ele>
        <time>2015-03-09T10:35:44Z</time>
      </trkpt>
      <trkpt lat="43.94361" lon="7.1537">
        <ele>607.21</ele>
        <time>2015-03-09T10:35:54Z</time>
      </trkpt>
      <trkpt lat="43.94363" lon="7.15366">
        <ele>605.29</ele>
        <time>2015-03-09T10:36:04Z</time>
      </trkpt>
      <trkpt lat="43.94359" lon="7.1536">
        <ele>603.36</ele>
        <time>2015-03-09T10:36:15Z</time>
      </trkpt>
      <trkpt lat="43.94357" lon="7.15358">
        <ele>602.4</ele>
        <time>2015-03-09T10:36:25Z</time>
      </trkpt>
      <trkpt lat="43.94358" lon="7.15357">
        <ele>601.92</ele>
        <time>2015-03-09T10:36:45Z</time>
      </trkpt>
      <trkpt lat="43.94358" lon="7.15356">
        <ele>601.44</ele>
        <time>2015-03-09T10:36:46Z</time>
      </trkpt>
      <trkpt lat="43.9436" lon="7.1535">
        <ele>600</ele>
        <time>2015-03-09T10:36:54Z</time>
      </trkpt>
      <trkpt lat="43.94359" lon="7.1535">
        <ele>598.56</ele>
        <time>2015-03-09T10:37:04Z</time>
      </trkpt>
      <trkpt lat="43.94354" lon="7.15355">
        <ele>596.64</ele>
        <time>2015-03-09T10:37:15Z</time>
      </trkpt>
      <trkpt lat="43.94346" lon="7.15351">
        <ele>594.71</ele>
        <time>2015-03-09T10:37:25Z</time>
      </trkpt>
      <trkpt lat="43.94344" lon="7.15349">
        <ele>593.27</ele>
        <time>2015-03-09T10:37:34Z</time>
      </trkpt>
      <trkpt lat="43.94338" lon="7.1535">
        <ele>591.35</ele>
        <time>2015-03-09T10:37:43Z</time>
      </trkpt>
      <trkpt lat="43.94328" lon="7.15351">
        <ele>588.95</ele>
        <time>2015-03-09T10:37:55Z</time>
      </trkpt>
      <trkpt lat="43.94322" lon="7.15351">
        <ele>586.54</ele>
        <time>2015-03-09T10:38:05Z</time>
      </trkpt>
      <trkpt lat="43.94315" lon="7.15352">
        <ele>585.1</ele>
        <time>2015-03-09T10:38:16Z</time>
      </trkpt>
      <trkpt lat="43.9431" lon="7.15353">
        <ele>583.18</ele>
        <time>2015-03-09T10:38:25Z</time>
      </trkpt>
      <trkpt lat="43.94309" lon="7.15349">
        <ele>580.77</ele>
        <time>2015-03-09T10:38:37Z</time>
      </trkpt>
      <trkpt lat="43.94303" lon="7.15349">
        <ele>578.37</ele>
        <time>2015-03-09T10:38:47Z</time>
      </trkpt>
      <trkpt lat="43.94295" lon="7.15351">
        <ele>575.97</ele>
        <time>2015-03-09T10:39:00Z</time>
      </trkpt>
      <trkpt lat="43.94291" lon="7.15342">
        <ele>573.56</ele>
        <time>2015-03-09T10:39:10Z</time>
      </trkpt>
      <trkpt lat="43.94281" lon="7.15338">
        <ele>570.68</ele>
        <time>2015-03-09T10:39:22Z</time>
      </trkpt>
      <trkpt lat="43.94275" lon="7.15337">
        <ele>568.76</ele>
        <time>2015-03-09T10:39:32Z</time>
      </trkpt>
      <trkpt lat="43.94267" lon="7.15338">
        <ele>566.83</ele>
        <time>2015-03-09T10:39:43Z</time>
      </trkpt>
      <trkpt lat="43.94262" lon="7.15333">
        <ele>564.91</ele>
        <time>2015-03-09T10:39:52Z</time>
      </trkpt>
      <trkpt lat="43.9426" lon="7.15332">
        <ele>564.43</ele>
        <time>2015-03-09T10:39:55Z</time>
      </trkpt>
      <trkpt lat="43.94259" lon="7.15328">
        <ele>563.95</ele>
        <time>2015-03-09T10:39:59Z</time>
      </trkpt>
      <trkpt lat="43.94256" lon="7.1533">
        <ele>562.03</ele>
        <time>2015-03-09T10:40:08Z</time>
      </trkpt>
      <trkpt lat="43.94253" lon="7.1533">
        <ele>560.59</ele>
        <time>2015-03-09T10:40:14Z</time>
      </trkpt>
      <trkpt lat="43.94252" lon="7.15323">
        <ele>559.14</ele>
        <time>2015-03-09T10:40:23Z</time>
      </trkpt>
      <trkpt lat="43.9425" lon="7.15316">
        <ele>557.22</ele>
        <time>2015-03-09T10:40:31Z</time>
      </trkpt>
      <trkpt lat="43.94247" lon="7.15314">
        <ele>556.26</ele>
        <time>2015-03-09T10:40:34Z</time>
      </trkpt>
      <trkpt lat="43.9424" lon="7.15311">
        <ele>554.34</ele>
        <time>2015-03-09T10:40:44Z</time>
      </trkpt>
      <trkpt lat="43.94237" lon="7.15304">
        <ele>552.9</ele>
        <time>2015-03-09T10:40:52Z</time>
      </trkpt>
      <trkpt lat="43.94236" lon="7.15295">
        <ele>550.49</ele>
        <time>2015-03-09T10:41:03Z</time>
      </trkpt>
      <trkpt lat="43.94232" lon="7.15293">
        <ele>549.05</ele>
        <time>2015-03-09T10:41:12Z</time>
      </trkpt>
      <trkpt lat="43.94227" lon="7.15291">
        <ele>547.61</ele>
        <time>2015-03-09T10:41:22Z</time>
      </trkpt>
      <trkpt lat="43.94217" lon="7.15287">
        <ele>545.2</ele>
        <time>2015-03-09T10:41:35Z</time>
      </trkpt>
      <trkpt lat="43.94215" lon="7.15287">
        <ele>545.2</ele>
        <time>2015-03-09T10:41:37Z</time>
      </trkpt>
      <trkpt lat="43.94211" lon="7.15285">
        <ele>544.24</ele>
        <time>2015-03-09T10:41:43Z</time>
      </trkpt>
      <trkpt lat="43.94206" lon="7.1528">
        <ele>543.76</ele>
        <time>2015-03-09T10:41:53Z</time>
      </trkpt>
      <trkpt lat="43.94204" lon="7.15279">
        <ele>542.8</ele>
        <time>2015-03-09T10:41:57Z</time>
      </trkpt>
      <trkpt lat="43.94201" lon="7.15277">
        <ele>542.32</ele>
        <time>2015-03-09T10:42:01Z</time>
      </trkpt>
      <trkpt lat="43.94196" lon="7.15271">
        <ele>541.84</ele>
        <time>2015-03-09T10:42:12Z</time>
      </trkpt>
      <trkpt lat="43.94196" lon="7.1527">
        <ele>541.84</ele>
        <time>2015-03-09T10:42:24Z</time>
      </trkpt>
      <trkpt lat="43.94192" lon="7.15267">
        <ele>541.84</ele>
        <time>2015-03-09T10:42:31Z</time>
      </trkpt>
      <trkpt lat="43.94181" lon="7.15263">
        <ele>542.32</ele>
        <time>2015-03-09T10:42:42Z</time>
      </trkpt>
      <trkpt lat="43.94179" lon="7.15262">
        <ele>542.32</ele>
        <time>2015-03-09T10:42:52Z</time>
      </trkpt>
      <trkpt lat="43.94179" lon="7.15262">
        <ele>542.32</ele>
        <time>2015-03-09T10:43:17Z</time>
      </trkpt>
      <trkpt lat="43.94179" lon="7.15263">
        <ele>542.32</ele>
        <time>2015-03-09T10:43:35Z</time>
      </trkpt>
      <trkpt lat="43.94174" lon="7.15262">
        <ele>541.84</ele>
        <time>2015-03-09T10:43:43Z</time>
      </trkpt>
      <trkpt lat="43.94174" lon="7.15261">
        <ele>543.28</ele>
        <time>2015-03-09T10:43:54Z</time>
      </trkpt>
      <trkpt lat="43.94173" lon="7.15259">
        <ele>543.28</ele>
        <time>2015-03-09T10:44:03Z</time>
      </trkpt>
      <trkpt lat="43.94163" lon="7.1525">
        <ele>542.8</ele>
        <time>2015-03-09T10:44:13Z</time>
      </trkpt>
      <trkpt lat="43.94153" lon="7.15245">
        <ele>542.32</ele>
        <time>2015-03-09T10:44:24Z</time>
      </trkpt>
      <trkpt lat="43.94141" lon="7.1524">
        <ele>541.36</ele>
        <time>2015-03-09T10:44:35Z</time>
      </trkpt>
      <trkpt lat="43.94131" lon="7.15239">
        <ele>539.92</ele>
        <time>2015-03-09T10:44:44Z</time>
      </trkpt>
      <trkpt lat="43.94117" lon="7.15233">
        <ele>537.99</ele>
        <time>2015-03-09T10:44:57Z</time>
      </trkpt>
      <trkpt lat="43.9411" lon="7.1523">
        <ele>536.55</ele>
        <time>2015-03-09T10:45:08Z</time>
      </trkpt>
      <trkpt lat="43.94102" lon="7.15226">
        <ele>534.63</ele>
        <time>2015-03-09T10:45:20Z</time>
      </trkpt>
      <trkpt lat="43.94094" lon="7.15222">
        <ele>533.19</ele>
        <time>2015-03-09T10:45:30Z</time>
      </trkpt>
      <trkpt lat="43.94085" lon="7.15226">
        <ele>530.79</ele>
        <time>2015-03-09T10:45:43Z</time>
      </trkpt>
      <trkpt lat="43.9408" lon="7.1523">
        <ele>529.34</ele>
        <time>2015-03-09T10:45:51Z</time>
      </trkpt>
      <trkpt lat="43.94076" lon="7.15233">
        <ele>527.9</ele>
        <time>2015-03-09T10:46:00Z</time>
      </trkpt>
      <trkpt lat="43.94074" lon="7.15232">
        <ele>525.98</ele>
        <time>2015-03-09T10:46:10Z</time>
      </trkpt>
      <trkpt lat="43.94074" lon="7.15234">
        <ele>524.54</ele>
        <time>2015-03-09T10:46:21Z</time>
      </trkpt>
      <trkpt lat="43.94074" lon="7.15238">
        <ele>527.9</ele>
        <time>2015-03-09T10:46:28Z</time>
      </trkpt>
      <trkpt lat="43.94073" lon="7.15242">
        <ele>526.94</ele>
        <time>2015-03-09T10:46:34Z</time>
      </trkpt>
      <trkpt lat="43.94053" lon="7.15268">
        <ele>524.06</ele>
        <time>2015-03-09T10:46:46Z</time>
      </trkpt>
      <trkpt lat="43.94049" lon="7.15265">
        <ele>522.61</ele>
        <time>2015-03-09T10:46:52Z</time>
      </trkpt>
      <trkpt lat="43.94043" lon="7.15268">
        <ele>521.65</ele>
        <time>2015-03-09T10:47:01Z</time>
      </trkpt>
      <trkpt lat="43.94033" lon="7.15276">
        <ele>521.17</ele>
        <time>2015-03-09T10:47:11Z</time>
      </trkpt>
      <trkpt lat="43.94029" lon="7.15278">
        <ele>521.17</ele>
        <time>2015-03-09T10:47:14Z</time>
      </trkpt>
      <trkpt lat="43.94015" lon="7.15282">
        <ele>521.17</ele>
        <time>2015-03-09T10:47:27Z</time>
      </trkpt>
      <trkpt lat="43.94002" lon="7.15286">
        <ele>521.65</ele>
        <time>2015-03-09T10:47:39Z</time>
      </trkpt>
      <trkpt lat="43.93993" lon="7.15292">
        <ele>522.13</ele>
        <time>2015-03-09T10:47:49Z</time>
      </trkpt>
      <trkpt lat="43.93983" lon="7.15296">
        <ele>522.61</ele>
        <time>2015-03-09T10:47:59Z</time>
      </trkpt>
      <trkpt lat="43.9398" lon="7.15298">
        <ele>522.61</ele>
        <time>2015-03-09T10:48:02Z</time>
      </trkpt>
      <trkpt lat="43.93971" lon="7.15301">
        <ele>523.09</ele>
        <time>2015-03-09T10:48:13Z</time>
      </trkpt>
      <trkpt lat="43.93958" lon="7.15305">
        <ele>523.58</ele>
        <time>2015-03-09T10:48:25Z</time>
      </trkpt>
      <trkpt lat="43.93949" lon="7.15309">
        <ele>524.54</ele>
        <time>2015-03-09T10:48:36Z</time>
      </trkpt>
      <trkpt lat="43.93944" lon="7.15312">
        <ele>524.54</ele>
        <time>2015-03-09T10:48:52Z</time>
      </trkpt>
      <trkpt lat="43.93941" lon="7.1531">
        <ele>525.5</ele>
        <time>2015-03-09T10:49:07Z</time>
      </trkpt>
      <trkpt lat="43.93938" lon="7.15307">
        <ele>525.5</ele>
        <time>2015-03-09T10:49:11Z</time>
      </trkpt>
      <trkpt lat="43.9393" lon="7.15301">
        <ele>525.5</ele>
        <time>2015-03-09T10:49:19Z</time>
      </trkpt>
      <trkpt lat="43.93918" lon="7.15292">
        <ele>525.02</ele>
        <time>2015-03-09T10:49:31Z</time>
      </trkpt>
      <trkpt lat="43.9391" lon="7.15287">
        <ele>525.02</ele>
        <time>2015-03-09T10:49:41Z</time>
      </trkpt>
      <trkpt lat="43.9391" lon="7.15285">
        <ele>525.02</ele>
        <time>2015-03-09T10:49:53Z</time>
      </trkpt>
      <trkpt lat="43.9391" lon="7.15285">
        <ele>524.54</ele>
        <time>2015-03-09T10:49:58Z</time>
      </trkpt>
      <trkpt lat="43.93912" lon="7.15285">
        <ele>524.54</ele>
        <time>2015-03-09T10:50:12Z</time>
      </trkpt>
      <trkpt lat="43.93913" lon="7.15284">
        <ele>524.54</ele>
        <time>2015-03-09T10:50:34Z</time>
      </trkpt>
      <trkpt lat="43.93906" lon="7.15284">
        <ele>525.98</ele>
        <time>2015-03-09T10:50:47Z</time>
      </trkpt>
      <trkpt lat="43.93899" lon="7.15283">
        <ele>527.42</ele>
        <time>2015-03-09T10:50:59Z</time>
      </trkpt>
      <trkpt lat="43.9389" lon="7.1528">
        <ele>530.3</ele>
        <time>2015-03-09T10:51:13Z</time>
      </trkpt>
      <trkpt lat="43.93882" lon="7.1528">
        <ele>531.75</ele>
        <time>2015-03-09T10:51:22Z</time>
      </trkpt>
      <trkpt lat="43.93876" lon="7.15273">
        <ele>532.71</ele>
        <time>2015-03-09T10:51:33Z</time>
      </trkpt>
      <trkpt lat="43.9387" lon="7.15269">
        <ele>535.11</ele>
        <time>2015-03-09T10:51:45Z</time>
      </trkpt>
      <trkpt lat="43.93866" lon="7.15263">
        <ele>536.55</ele>
        <time>2015-03-09T10:51:55Z</time>
      </trkpt>
      <trkpt lat="43.93861" lon="7.15262">
        <ele>537.99</ele>
        <time>2015-03-09T10:52:07Z</time>
      </trkpt>
      <trkpt lat="43.93852" lon="7.15259">
        <ele>539.44</ele>
        <time>2015-03-09T10:52:18Z</time>
      </trkpt>
      <trkpt lat="43.93845" lon="7.15254">
        <ele>540.88</ele>
        <time>2015-03-09T10:52:32Z</time>
      </trkpt>
      <trkpt lat="43.93835" lon="7.1525">
        <ele>542.8</ele>
        <time>2015-03-09T10:52:45Z</time>
      </trkpt>
      <trkpt lat="43.9383" lon="7.15246">
        <ele>544.24</ele>
        <time>2015-03-09T10:52:56Z</time>
      </trkpt>
      <trkpt lat="43.93826" lon="7.15242">
        <ele>545.2</ele>
        <time>2015-03-09T10:53:05Z</time>
      </trkpt>
      <trkpt lat="43.9382" lon="7.15238">
        <ele>545.69</ele>
        <time>2015-03-09T10:53:14Z</time>
      </trkpt>
      <trkpt lat="43.9381" lon="7.15234">
        <ele>546.65</ele>
        <time>2015-03-09T10:53:23Z</time>
      </trkpt>
      <trkpt lat="43.93808" lon="7.15231">
        <ele>547.13</ele>
        <time>2015-03-09T10:53:27Z</time>
      </trkpt>
      <trkpt lat="43.93803" lon="7.15217">
        <ele>548.57</ele>
        <time>2015-03-09T10:53:39Z</time>
      </trkpt>
      <trkpt lat="43.93799" lon="7.15207">
        <ele>550.97</ele>
        <time>2015-03-09T10:53:50Z</time>
      </trkpt>
      <trkpt lat="43.93796" lon="7.15202">
        <ele>552.41</ele>
        <time>2015-03-09T10:54:00Z</time>
      </trkpt>
      <trkpt lat="43.93793" lon="7.15194">
        <ele>553.86</ele>
        <time>2015-03-09T10:54:10Z</time>
      </trkpt>
      <trkpt lat="43.93791" lon="7.1519">
        <ele>555.78</ele>
        <time>2015-03-09T10:54:19Z</time>
      </trkpt>
      <trkpt lat="43.93786" lon="7.15184">
        <ele>557.7</ele>
        <time>2015-03-09T10:54:31Z</time>
      </trkpt>
      <trkpt lat="43.93784" lon="7.1518">
        <ele>558.66</ele>
        <time>2015-03-09T10:54:36Z</time>
      </trkpt>
      <trkpt lat="43.93779" lon="7.15175">
        <ele>560.11</ele>
        <time>2015-03-09T10:54:49Z</time>
      </trkpt>
      <trkpt lat="43.93784" lon="7.15188">
        <ele>561.55</ele>
        <time>2015-03-09T10:54:59Z</time>
      </trkpt>
      <trkpt lat="43.93786" lon="7.15201">
        <ele>562.99</ele>
        <time>2015-03-09T10:55:10Z</time>
      </trkpt>
      <trkpt lat="43.93782" lon="7.15204">
        <ele>564.43</ele>
        <time>2015-03-09T10:55:20Z</time>
      </trkpt>
      <trkpt lat="43.9378" lon="7.15197">
        <ele>565.87</ele>
        <time>2015-03-09T10:55:30Z</time>
      </trkpt>
      <trkpt lat="43.93777" lon="7.15194">
        <ele>567.8</ele>
        <time>2015-03-09T10:55:42Z</time>
      </trkpt>
      <trkpt lat="43.93774" lon="7.15192">
        <ele>571.16</ele>
        <time>2015-03-09T10:55:56Z</time>
      </trkpt>
      <trkpt lat="43.93765" lon="7.15187">
        <ele>571.64</ele>
        <time>2015-03-09T10:56:07Z</time>
      </trkpt>
      <trkpt lat="43.93763" lon="7.15184">
        <ele>574.04</ele>
        <time>2015-03-09T10:56:21Z</time>
      </trkpt>
      <trkpt lat="43.93757" lon="7.15181">
        <ele>575.97</ele>
        <time>2015-03-09T10:56:35Z</time>
      </trkpt>
      <trkpt lat="43.93751" lon="7.15176">
        <ele>577.89</ele>
        <time>2015-03-09T10:56:48Z</time>
      </trkpt>
      <trkpt lat="43.93748" lon="7.15171">
        <ele>579.81</ele>
        <time>2015-03-09T10:57:00Z</time>
      </trkpt>
      <trkpt lat="43.93742" lon="7.15165">
        <ele>581.73</ele>
        <time>2015-03-09T10:57:13Z</time>
      </trkpt>
      <trkpt lat="43.93738" lon="7.15162">
        <ele>583.18</ele>
        <time>2015-03-09T10:57:24Z</time>
      </trkpt>
      <trkpt lat="43.93733" lon="7.15157">
        <ele>585.1</ele>
        <time>2015-03-09T10:57:35Z</time>
      </trkpt>
      <trkpt lat="43.93726" lon="7.15153">
        <ele>586.54</ele>
        <time>2015-03-09T10:57:46Z</time>
      </trkpt>
      <trkpt lat="43.93723" lon="7.15158">
        <ele>588.95</ele>
        <time>2015-03-09T10:57:57Z</time>
      </trkpt>
      <trkpt lat="43.93719" lon="7.15162">
        <ele>589.91</ele>
        <time>2015-03-09T10:58:07Z</time>
      </trkpt>
      <trkpt lat="43.93714" lon="7.15168">
        <ele>590.87</ele>
        <time>2015-03-09T10:58:18Z</time>
      </trkpt>
      <trkpt lat="43.9371" lon="7.15173">
        <ele>591.35</ele>
        <time>2015-03-09T10:58:33Z</time>
      </trkpt>
      <trkpt lat="43.93711" lon="7.15171">
        <ele>591.35</ele>
        <time>2015-03-09T10:58:50Z</time>
      </trkpt>
      <trkpt lat="43.93711" lon="7.15171">
        <ele>591.35</ele>
        <time>2015-03-09T10:59:05Z</time>
      </trkpt>
      <trkpt lat="43.93712" lon="7.1517">
        <ele>591.35</ele>
        <time>2015-03-09T10:59:22Z</time>
      </trkpt>
      <trkpt lat="43.93712" lon="7.1517">
        <ele>591.35</ele>
        <time>2015-03-09T10:59:35Z</time>
      </trkpt>
      <trkpt lat="43.93712" lon="7.15169">
        <ele>591.35</ele>
        <time>2015-03-09T10:59:50Z</time>
      </trkpt>
      <trkpt lat="43.93712" lon="7.1517">
        <ele>590.87</ele>
        <time>2015-03-09T11:00:10Z</time>
      </trkpt>
      <trkpt lat="43.93712" lon="7.1517">
        <ele>590.87</ele>
        <time>2015-03-09T11:00:33Z</time>
      </trkpt>
      <trkpt lat="43.93711" lon="7.15171">
        <ele>590.87</ele>
        <time>2015-03-09T11:00:51Z</time>
      </trkpt>
      <trkpt lat="43.93711" lon="7.1517">
        <ele>590.87</ele>
        <time>2015-03-09T11:01:13Z</time>
      </trkpt>
      <trkpt lat="43.93711" lon="7.1517">
        <ele>591.35</ele>
        <time>2015-03-09T11:01:30Z</time>
      </trkpt>
      <trkpt lat="43.9371" lon="7.1517">
        <ele>591.35</ele>
        <time>2015-03-09T11:01:48Z</time>
      </trkpt>
      <trkpt lat="43.93702" lon="7.15177">
        <ele>593.27</ele>
        <time>2015-03-09T11:01:59Z</time>
      </trkpt>
      <trkpt lat="43.93701" lon="7.15178">
        <ele>594.23</ele>
        <time>2015-03-09T11:02:10Z</time>
      </trkpt>
      <trkpt lat="43.93698" lon="7.15179">
        <ele>595.19</ele>
        <time>2015-03-09T11:02:16Z</time>
      </trkpt>
      <trkpt lat="43.93687" lon="7.15191">
        <ele>595.67</ele>
        <time>2015-03-09T11:02:26Z</time>
      </trkpt>
      <trkpt lat="43.93677" lon="7.15208">
        <ele>596.64</ele>
        <time>2015-03-09T11:02:35Z</time>
      </trkpt>
      <trkpt lat="43.9367" lon="7.15215">
        <ele>598.08</ele>
        <time>2015-03-09T11:02:46Z</time>
      </trkpt>
      <trkpt lat="43.93662" lon="7.15215">
        <ele>598.56</ele>
        <time>2015-03-09T11:02:56Z</time>
      </trkpt>
      <trkpt lat="43.93656" lon="7.15213">
        <ele>600</ele>
        <time>2015-03-09T11:03:06Z</time>
      </trkpt>
      <trkpt lat="43.93647" lon="7.15207">
        <ele>602.88</ele>
        <time>2015-03-09T11:03:20Z</time>
      </trkpt>
      <trkpt lat="43.93637" lon="7.15205">
        <ele>605.29</ele>
        <time>2015-03-09T11:03:32Z</time>
      </trkpt>
      <trkpt lat="43.9363" lon="7.15201">
        <ele>606.73</ele>
        <time>2015-03-09T11:03:42Z</time>
      </trkpt>
      <trkpt lat="43.93621" lon="7.15201">
        <ele>608.17</ele>
        <time>2015-03-09T11:03:54Z</time>
      </trkpt>
      <trkpt lat="43.93616" lon="7.15202">
        <ele>610.09</ele>
        <time>2015-03-09T11:04:05Z</time>
      </trkpt>
      <trkpt lat="43.93611" lon="7.15198">
        <ele>611.06</ele>
        <time>2015-03-09T11:04:13Z</time>
      </trkpt>
      <trkpt lat="43.93598" lon="7.15194">
        <ele>612.98</ele>
        <time>2015-03-09T11:04:26Z</time>
      </trkpt>
      <trkpt lat="43.93593" lon="7.15191">
        <ele>612.98</ele>
        <time>2015-03-09T11:04:35Z</time>
      </trkpt>
      <trkpt lat="43.93587" lon="7.15191">
        <ele>613.94</ele>
        <time>2015-03-09T11:04:44Z</time>
      </trkpt>
      <trkpt lat="43.9358" lon="7.15188">
        <ele>615.38</ele>
        <time>2015-03-09T11:04:55Z</time>
      </trkpt>
      <trkpt lat="43.93574" lon="7.15187">
        <ele>616.82</ele>
        <time>2015-03-09T11:05:03Z</time>
      </trkpt>
      <trkpt lat="43.93568" lon="7.15185">
        <ele>618.75</ele>
        <time>2015-03-09T11:05:14Z</time>
      </trkpt>
      <trkpt lat="43.93565" lon="7.15187">
        <ele>620.19</ele>
        <time>2015-03-09T11:05:25Z</time>
      </trkpt>
      <trkpt lat="43.93567" lon="7.15197">
        <ele>622.11</ele>
        <time>2015-03-09T11:05:37Z</time>
      </trkpt>
      <trkpt lat="43.93569" lon="7.15206">
        <ele>623.07</ele>
        <time>2015-03-09T11:05:46Z</time>
      </trkpt>
      <trkpt lat="43.93569" lon="7.15207">
        <ele>623.07</ele>
        <time>2015-03-09T11:06:02Z</time>
      </trkpt>
      <trkpt lat="43.93567" lon="7.15209">
        <ele>623.55</ele>
        <time>2015-03-09T11:06:18Z</time>
      </trkpt>
      <trkpt lat="43.93568" lon="7.15209">
        <ele>623.55</ele>
        <time>2015-03-09T11:06:38Z</time>
      </trkpt>
      <trkpt lat="43.9357" lon="7.15216">
        <ele>623.55</ele>
        <time>2015-03-09T11:06:45Z</time>
      </trkpt>
      <trkpt lat="43.93573" lon="7.15232">
        <ele>623.07</ele>
        <time>2015-03-09T11:06:55Z</time>
      </trkpt>
      <trkpt lat="43.93575" lon="7.15242">
        <ele>622.11</ele>
        <time>2015-03-09T11:07:08Z</time>
      </trkpt>
      <trkpt lat="43.93575" lon="7.15247">
        <ele>622.11</ele>
        <time>2015-03-09T11:07:18Z</time>
      </trkpt>
      <trkpt lat="43.93576" lon="7.15247">
        <ele>622.59</ele>
        <time>2015-03-09T11:07:33Z</time>
      </trkpt>
      <trkpt lat="43.93572" lon="7.15251">
        <ele>622.59</ele>
        <time>2015-03-09T11:07:42Z</time>
      </trkpt>
      <trkpt lat="43.93575" lon="7.15262">
        <ele>623.07</ele>
        <time>2015-03-09T11:07:53Z</time>
      </trkpt>
      <trkpt lat="43.93576" lon="7.15265">
        <ele>622.59</ele>
        <time>2015-03-09T11:08:03Z</time>
      </trkpt>
      <trkpt lat="43.93576" lon="7.15265">
        <ele>622.59</ele>
        <time>2015-03-09T11:08:13Z</time>
      </trkpt>
      <trkpt lat="43.93578" lon="7.15275">
        <ele>622.59</ele>
        <time>2015-03-09T11:08:25Z</time>
      </trkpt>
      <trkpt lat="43.93576" lon="7.15287">
        <ele>623.55</ele>
        <time>2015-03-09T11:08:35Z</time>
      </trkpt>
      <trkpt lat="43.93577" lon="7.15299">
        <ele>625.47</ele>
        <time>2015-03-09T11:08:47Z</time>
      </trkpt>
      <trkpt lat="43.93576" lon="7.15311">
        <ele>626.92</ele>
        <time>2015-03-09T11:08:57Z</time>
      </trkpt>
      <trkpt lat="43.93576" lon="7.15324">
        <ele>628.36</ele>
        <time>2015-03-09T11:09:07Z</time>
      </trkpt>
      <trkpt lat="43.93578" lon="7.15338">
        <ele>629.8</ele>
        <time>2015-03-09T11:09:19Z</time>
      </trkpt>
      <trkpt lat="43.93584" lon="7.15348">
        <ele>630.76</ele>
        <time>2015-03-09T11:09:28Z</time>
      </trkpt>
      <trkpt lat="43.9359" lon="7.15358">
        <ele>632.2</ele>
        <time>2015-03-09T11:09:38Z</time>
      </trkpt>
      <trkpt lat="43.93594" lon="7.15362">
        <ele>632.68</ele>
        <time>2015-03-09T11:09:51Z</time>
      </trkpt>
      <trkpt lat="43.93596" lon="7.15361">
        <ele>632.2</ele>
        <time>2015-03-09T11:10:09Z</time>
      </trkpt>
      <trkpt lat="43.93599" lon="7.15371">
        <ele>633.17</ele>
        <time>2015-03-09T11:10:20Z</time>
      </trkpt>
      <trkpt lat="43.93602" lon="7.15379">
        <ele>632.68</ele>
        <time>2015-03-09T11:10:28Z</time>
      </trkpt>
      <trkpt lat="43.93603" lon="7.15383">
        <ele>632.68</ele>
        <time>2015-03-09T11:10:30Z</time>
      </trkpt>
      <trkpt lat="43.93604" lon="7.15399">
        <ele>632.68</ele>
        <time>2015-03-09T11:10:42Z</time>
      </trkpt>
      <trkpt lat="43.93603" lon="7.15411">
        <ele>633.17</ele>
        <time>2015-03-09T11:10:52Z</time>
      </trkpt>
      <trkpt lat="43.93595" lon="7.15425">
        <ele>633.17</ele>
        <time>2015-03-09T11:11:02Z</time>
      </trkpt>
      <trkpt lat="43.93589" lon="7.15439">
        <ele>634.13</ele>
        <time>2015-03-09T11:11:13Z</time>
      </trkpt>
      <trkpt lat="43.93588" lon="7.15442">
        <ele>633.65</ele>
        <time>2015-03-09T11:11:15Z</time>
      </trkpt>
      <trkpt lat="43.93588" lon="7.15446">
        <ele>634.13</ele>
        <time>2015-03-09T11:11:19Z</time>
      </trkpt>
      <trkpt lat="43.93583" lon="7.15472">
        <ele>634.61</ele>
        <time>2015-03-09T11:11:32Z</time>
      </trkpt>
      <trkpt lat="43.93582" lon="7.15484">
        <ele>635.09</ele>
        <time>2015-03-09T11:11:42Z</time>
      </trkpt>
      <trkpt lat="43.93577" lon="7.155">
        <ele>636.05</ele>
        <time>2015-03-09T11:11:53Z</time>
      </trkpt>
      <trkpt lat="43.93569" lon="7.15513">
        <ele>637.49</ele>
        <time>2015-03-09T11:12:05Z</time>
      </trkpt>
      <trkpt lat="43.9356" lon="7.15519">
        <ele>637.97</ele>
        <time>2015-03-09T11:12:14Z</time>
      </trkpt>
      <trkpt lat="43.93557" lon="7.15528">
        <ele>638.93</ele>
        <time>2015-03-09T11:12:21Z</time>
      </trkpt>
      <trkpt lat="43.93561" lon="7.15545">
        <ele>638.45</ele>
        <time>2015-03-09T11:12:34Z</time>
      </trkpt>
      <trkpt lat="43.93562" lon="7.15547">
        <ele>638.45</ele>
        <time>2015-03-09T11:12:35Z</time>
      </trkpt>
      <trkpt lat="43.93565" lon="7.15565">
        <ele>637.97</ele>
        <time>2015-03-09T11:12:48Z</time>
      </trkpt>
      <trkpt lat="43.93565" lon="7.1558">
        <ele>637.49</ele>
        <time>2015-03-09T11:12:59Z</time>
      </trkpt>
      <trkpt lat="43.93567" lon="7.15592">
        <ele>636.53</ele>
        <time>2015-03-09T11:13:09Z</time>
      </trkpt>
      <trkpt lat="43.93568" lon="7.15602">
        <ele>636.05</ele>
        <time>2015-03-09T11:13:19Z</time>
      </trkpt>
      <trkpt lat="43.93563" lon="7.1562">
        <ele>634.13</ele>
        <time>2015-03-09T11:13:31Z</time>
      </trkpt>
      <trkpt lat="43.93561" lon="7.15628">
        <ele>633.17</ele>
        <time>2015-03-09T11:13:37Z</time>
      </trkpt>
      <trkpt lat="43.93559" lon="7.15645">
        <ele>632.2</ele>
        <time>2015-03-09T11:13:47Z</time>
      </trkpt>
      <trkpt lat="43.93557" lon="7.15663">
        <ele>632.2</ele>
        <time>2015-03-09T11:13:57Z</time>
      </trkpt>
      <trkpt lat="43.93556" lon="7.15678">
        <ele>632.68</ele>
        <time>2015-03-09T11:14:07Z</time>
      </trkpt>
      <trkpt lat="43.93553" lon="7.15692">
        <ele>633.17</ele>
        <time>2015-03-09T11:14:19Z</time>
      </trkpt>
      <trkpt lat="43.93551" lon="7.15695">
        <ele>633.17</ele>
        <time>2015-03-09T11:14:22Z</time>
      </trkpt>
      <trkpt lat="43.93541" lon="7.15711">
        <ele>633.65</ele>
        <time>2015-03-09T11:14:34Z</time>
      </trkpt>
      <trkpt lat="43.93533" lon="7.15719">
        <ele>634.13</ele>
        <time>2015-03-09T11:14:43Z</time>
      </trkpt>
      <trkpt lat="43.93527" lon="7.15724">
        <ele>634.61</ele>
        <time>2015-03-09T11:14:51Z</time>
      </trkpt>
      <trkpt lat="43.93515" lon="7.15734">
        <ele>635.57</ele>
        <time>2015-03-09T11:15:03Z</time>
      </trkpt>
      <trkpt lat="43.93507" lon="7.15737">
        <ele>637.01</ele>
        <time>2015-03-09T11:15:13Z</time>
      </trkpt>
      <trkpt lat="43.93498" lon="7.15744">
        <ele>638.45</ele>
        <time>2015-03-09T11:15:24Z</time>
      </trkpt>
      <trkpt lat="43.93489" lon="7.15752">
        <ele>639.41</ele>
        <time>2015-03-09T11:15:35Z</time>
      </trkpt>
      <trkpt lat="43.93488" lon="7.15752">
        <ele>639.89</ele>
        <time>2015-03-09T11:15:47Z</time>
      </trkpt>
      <trkpt lat="43.93488" lon="7.15751">
        <ele>639.89</ele>
        <time>2015-03-09T11:16:13Z</time>
      </trkpt>
      <trkpt lat="43.93481" lon="7.15755">
        <ele>640.86</ele>
        <time>2015-03-09T11:16:24Z</time>
      </trkpt>
      <trkpt lat="43.93478" lon="7.15757">
        <ele>641.34</ele>
        <time>2015-03-09T11:16:36Z</time>
      </trkpt>
      <trkpt lat="43.93478" lon="7.15758">
        <ele>641.34</ele>
        <time>2015-03-09T11:16:38Z</time>
      </trkpt>
      <trkpt lat="43.93465" lon="7.15766">
        <ele>641.34</ele>
        <time>2015-03-09T11:16:50Z</time>
      </trkpt>
      <trkpt lat="43.93459" lon="7.15773">
        <ele>642.3</ele>
        <time>2015-03-09T11:16:59Z</time>
      </trkpt>
      <trkpt lat="43.93458" lon="7.15773">
        <ele>642.3</ele>
        <time>2015-03-09T11:17:00Z</time>
      </trkpt>
      <trkpt lat="43.93446" lon="7.15778">
        <ele>642.78</ele>
        <time>2015-03-09T11:17:11Z</time>
      </trkpt>
      <trkpt lat="43.93441" lon="7.15781">
        <ele>642.78</ele>
        <time>2015-03-09T11:17:15Z</time>
      </trkpt>
      <trkpt lat="43.93433" lon="7.15792">
        <ele>643.74</ele>
        <time>2015-03-09T11:17:25Z</time>
      </trkpt>
      <trkpt lat="43.93423" lon="7.15802">
        <ele>645.18</ele>
        <time>2015-03-09T11:17:37Z</time>
      </trkpt>
      <trkpt lat="43.93418" lon="7.15806">
        <ele>645.18</ele>
        <time>2015-03-09T11:17:43Z</time>
      </trkpt>
      <trkpt lat="43.93412" lon="7.15811">
        <ele>645.18</ele>
        <time>2015-03-09T11:17:49Z</time>
      </trkpt>
      <trkpt lat="43.93405" lon="7.15815">
        <ele>645.18</ele>
        <time>2015-03-09T11:17:55Z</time>
      </trkpt>
      <trkpt lat="43.93396" lon="7.15821">
        <ele>645.18</ele>
        <time>2015-03-09T11:18:04Z</time>
      </trkpt>
      <trkpt lat="43.93383" lon="7.15829">
        <ele>645.66</ele>
        <time>2015-03-09T11:18:19Z</time>
      </trkpt>
      <trkpt lat="43.93379" lon="7.15829">
        <ele>645.66</ele>
        <time>2015-03-09T11:18:31Z</time>
      </trkpt>
      <trkpt lat="43.93369" lon="7.15833">
        <ele>645.66</ele>
        <time>2015-03-09T11:18:44Z</time>
      </trkpt>
      <trkpt lat="43.93364" lon="7.15842">
        <ele>646.14</ele>
        <time>2015-03-09T11:18:53Z</time>
      </trkpt>
      <trkpt lat="43.93362" lon="7.15845">
        <ele>646.14</ele>
        <time>2015-03-09T11:18:56Z</time>
      </trkpt>
      <trkpt lat="43.93356" lon="7.15856">
        <ele>646.14</ele>
        <time>2015-03-09T11:19:04Z</time>
      </trkpt>
      <trkpt lat="43.93349" lon="7.15871">
        <ele>646.14</ele>
        <time>2015-03-09T11:19:17Z</time>
      </trkpt>
      <trkpt lat="43.93347" lon="7.15872">
        <ele>646.14</ele>
        <time>2015-03-09T11:19:36Z</time>
      </trkpt>
      <trkpt lat="43.93347" lon="7.15872">
        <ele>646.62</ele>
        <time>2015-03-09T11:19:59Z</time>
      </trkpt>
      <trkpt lat="43.93345" lon="7.15875">
        <ele>645.66</ele>
        <time>2015-03-09T11:20:02Z</time>
      </trkpt>
      <trkpt lat="43.93342" lon="7.15888">
        <ele>645.18</ele>
        <time>2015-03-09T11:20:13Z</time>
      </trkpt>
      <trkpt lat="43.93341" lon="7.15893">
        <ele>645.18</ele>
        <time>2015-03-09T11:20:23Z</time>
      </trkpt>
      <trkpt lat="43.93337" lon="7.15895">
        <ele>645.18</ele>
        <time>2015-03-09T11:20:30Z</time>
      </trkpt>
      <trkpt lat="43.9333" lon="7.15899">
        <ele>644.7</ele>
        <time>2015-03-09T11:20:40Z</time>
      </trkpt>
      <trkpt lat="43.93329" lon="7.159">
        <ele>644.7</ele>
        <time>2015-03-09T11:20:52Z</time>
      </trkpt>
      <trkpt lat="43.93328" lon="7.15903">
        <ele>644.22</ele>
        <time>2015-03-09T11:21:13Z</time>
      </trkpt>
      <trkpt lat="43.93327" lon="7.15906">
        <ele>644.22</ele>
        <time>2015-03-09T11:21:16Z</time>
      </trkpt>
      <trkpt lat="43.93326" lon="7.15912">
        <ele>643.26</ele>
        <time>2015-03-09T11:21:20Z</time>
      </trkpt>
      <trkpt lat="43.93315" lon="7.15926">
        <ele>640.38</ele>
        <time>2015-03-09T11:21:33Z</time>
      </trkpt>
      <trkpt lat="43.93314" lon="7.15927">
        <ele>639.89</ele>
        <time>2015-03-09T11:21:34Z</time>
      </trkpt>
      <trkpt lat="43.93308" lon="7.15942">
        <ele>638.45</ele>
        <time>2015-03-09T11:21:46Z</time>
      </trkpt>
      <trkpt lat="43.93303" lon="7.1595">
        <ele>637.97</ele>
        <time>2015-03-09T11:21:51Z</time>
      </trkpt>
      <trkpt lat="43.93296" lon="7.1596">
        <ele>638.45</ele>
        <time>2015-03-09T11:22:01Z</time>
      </trkpt>
      <trkpt lat="43.93287" lon="7.15966">
        <ele>638.93</ele>
        <time>2015-03-09T11:22:10Z</time>
      </trkpt>
      <trkpt lat="43.93282" lon="7.15972">
        <ele>638.45</ele>
        <time>2015-03-09T11:22:16Z</time>
      </trkpt>
      <trkpt lat="43.93279" lon="7.15979">
        <ele>638.45</ele>
        <time>2015-03-09T11:22:22Z</time>
      </trkpt>
      <trkpt lat="43.93277" lon="7.15984">
        <ele>638.45</ele>
        <time>2015-03-09T11:22:25Z</time>
      </trkpt>
      <trkpt lat="43.93267" lon="7.15997">
        <ele>638.93</ele>
        <time>2015-03-09T11:22:38Z</time>
      </trkpt>
      <trkpt lat="43.93264" lon="7.16">
        <ele>639.41</ele>
        <time>2015-03-09T11:22:43Z</time>
      </trkpt>
      <trkpt lat="43.93257" lon="7.16011">
        <ele>641.34</ele>
        <time>2015-03-09T11:22:53Z</time>
      </trkpt>
      <trkpt lat="43.93255" lon="7.16013">
        <ele>641.34</ele>
        <time>2015-03-09T11:22:55Z</time>
      </trkpt>
      <trkpt lat="43.93252" lon="7.16017">
        <ele>642.3</ele>
        <time>2015-03-09T11:23:06Z</time>
      </trkpt>
      <trkpt lat="43.93249" lon="7.16022">
        <ele>643.26</ele>
        <time>2015-03-09T11:23:18Z</time>
      </trkpt>
      <trkpt lat="43.93244" lon="7.16031">
        <ele>645.18</ele>
        <time>2015-03-09T11:23:28Z</time>
      </trkpt>
      <trkpt lat="43.93234" lon="7.16043">
        <ele>646.62</ele>
        <time>2015-03-09T11:23:39Z</time>
      </trkpt>
      <trkpt lat="43.93229" lon="7.16051">
        <ele>647.59</ele>
        <time>2015-03-09T11:23:48Z</time>
      </trkpt>
      <trkpt lat="43.93221" lon="7.16064">
        <ele>650.47</ele>
        <time>2015-03-09T11:24:00Z</time>
      </trkpt>
      <trkpt lat="43.93217" lon="7.16075">
        <ele>651.91</ele>
        <time>2015-03-09T11:24:11Z</time>
      </trkpt>
      <trkpt lat="43.93215" lon="7.16081">
        <ele>653.83</ele>
        <time>2015-03-09T11:24:19Z</time>
      </trkpt>
      <trkpt lat="43.93212" lon="7.16093">
        <ele>654.8</ele>
        <time>2015-03-09T11:24:29Z</time>
      </trkpt>
      <trkpt lat="43.9321" lon="7.16099">
        <ele>655.28</ele>
        <time>2015-03-09T11:24:35Z</time>
      </trkpt>
      <trkpt lat="43.93205" lon="7.16109">
        <ele>656.72</ele>
        <time>2015-03-09T11:24:46Z</time>
      </trkpt>
      <trkpt lat="43.93202" lon="7.16117">
        <ele>659.12</ele>
        <time>2015-03-09T11:24:56Z</time>
      </trkpt>
      <trkpt lat="43.93198" lon="7.16127">
        <ele>660.08</ele>
        <time>2015-03-09T11:25:06Z</time>
      </trkpt>
      <trkpt lat="43.93196" lon="7.16133">
        <ele>660.56</ele>
        <time>2015-03-09T11:25:11Z</time>
      </trkpt>
      <trkpt lat="43.93193" lon="7.16143">
        <ele>661.52</ele>
        <time>2015-03-09T11:25:20Z</time>
      </trkpt>
      <trkpt lat="43.9319" lon="7.16146">
        <ele>661.52</ele>
        <time>2015-03-09T11:25:24Z</time>
      </trkpt>
      <trkpt lat="43.9318" lon="7.16154">
        <ele>663.93</ele>
        <time>2015-03-09T11:25:37Z</time>
      </trkpt>
      <trkpt lat="43.93174" lon="7.16163">
        <ele>665.37</ele>
        <time>2015-03-09T11:25:46Z</time>
      </trkpt>
      <trkpt lat="43.93172" lon="7.16166">
        <ele>665.85</ele>
        <time>2015-03-09T11:25:50Z</time>
      </trkpt>
      <trkpt lat="43.93165" lon="7.1618">
        <ele>666.33</ele>
        <time>2015-03-09T11:26:01Z</time>
      </trkpt>
      <trkpt lat="43.93162" lon="7.16186">
        <ele>666.33</ele>
        <time>2015-03-09T11:26:05Z</time>
      </trkpt>
      <trkpt lat="43.93153" lon="7.16196">
        <ele>666.33</ele>
        <time>2015-03-09T11:26:16Z</time>
      </trkpt>
      <trkpt lat="43.93144" lon="7.16205">
        <ele>666.81</ele>
        <time>2015-03-09T11:26:26Z</time>
      </trkpt>
      <trkpt lat="43.93139" lon="7.16211">
        <ele>667.77</ele>
        <time>2015-03-09T11:26:33Z</time>
      </trkpt>
      <trkpt lat="43.93131" lon="7.16218">
        <ele>668.25</ele>
        <time>2015-03-09T11:26:43Z</time>
      </trkpt>
      <trkpt lat="43.93127" lon="7.1622">
        <ele>669.22</ele>
        <time>2015-03-09T11:26:51Z</time>
      </trkpt>
      <trkpt lat="43.93122" lon="7.16225">
        <ele>670.18</ele>
        <time>2015-03-09T11:26:57Z</time>
      </trkpt>
      <trkpt lat="43.93113" lon="7.16234">
        <ele>671.14</ele>
        <time>2015-03-09T11:27:05Z</time>
      </trkpt>
      <trkpt lat="43.93103" lon="7.16241">
        <ele>672.58</ele>
        <time>2015-03-09T11:27:18Z</time>
      </trkpt>
      <trkpt lat="43.93101" lon="7.16242">
        <ele>673.54</ele>
        <time>2015-03-09T11:27:29Z</time>
      </trkpt>
      <trkpt lat="43.93101" lon="7.16242">
        <ele>673.06</ele>
        <time>2015-03-09T11:27:50Z</time>
      </trkpt>
      <trkpt lat="43.93101" lon="7.16241">
        <ele>673.06</ele>
        <time>2015-03-09T11:28:11Z</time>
      </trkpt>
      <trkpt lat="43.93101" lon="7.16242">
        <ele>673.06</ele>
        <time>2015-03-09T11:28:32Z</time>
      </trkpt>
      <trkpt lat="43.93097" lon="7.16252">
        <ele>674.5</ele>
        <time>2015-03-09T11:28:42Z</time>
      </trkpt>
      <trkpt lat="43.9309" lon="7.16262">
        <ele>676.42</ele>
        <time>2015-03-09T11:28:52Z</time>
      </trkpt>
      <trkpt lat="43.93086" lon="7.1627">
        <ele>678.83</ele>
        <time>2015-03-09T11:29:02Z</time>
      </trkpt>
      <trkpt lat="43.93084" lon="7.16278">
        <ele>680.75</ele>
        <time>2015-03-09T11:29:13Z</time>
      </trkpt>
      <trkpt lat="43.93082" lon="7.16291">
        <ele>683.15</ele>
        <time>2015-03-09T11:29:26Z</time>
      </trkpt>
      <trkpt lat="43.93084" lon="7.16297">
        <ele>684.6</ele>
        <time>2015-03-09T11:29:36Z</time>
      </trkpt>
      <trkpt lat="43.93081" lon="7.16303">
        <ele>686.52</ele>
        <time>2015-03-09T11:29:45Z</time>
      </trkpt>
      <trkpt lat="43.93082" lon="7.16309">
        <ele>685.08</ele>
        <time>2015-03-09T11:29:55Z</time>
      </trkpt>
      <trkpt lat="43.93082" lon="7.16309">
        <ele>690.84</ele>
        <time>2015-03-09T11:29:56Z</time>
      </trkpt>
      <trkpt lat="43.93083" lon="7.16319">
        <ele>689.88</ele>
        <time>2015-03-09T11:30:08Z</time>
      </trkpt>
      <trkpt lat="43.93084" lon="7.16321">
        <ele>690.36</ele>
        <time>2015-03-09T11:30:23Z</time>
      </trkpt>
      <trkpt lat="43.93085" lon="7.16328">
        <ele>691.81</ele>
        <time>2015-03-09T11:30:31Z</time>
      </trkpt>
      <trkpt lat="43.93084" lon="7.16329">
        <ele>693.73</ele>
        <time>2015-03-09T11:30:42Z</time>
      </trkpt>
      <trkpt lat="43.93083" lon="7.16339">
        <ele>696.13</ele>
        <time>2015-03-09T11:30:54Z</time>
      </trkpt>
      <trkpt lat="43.93081" lon="7.16348">
        <ele>698.53</ele>
        <time>2015-03-09T11:31:05Z</time>
      </trkpt>
      <trkpt lat="43.93081" lon="7.16349">
        <ele>699.02</ele>
        <time>2015-03-09T11:31:06Z</time>
      </trkpt>
      <trkpt lat="43.93081" lon="7.16356">
        <ele>699.02</ele>
        <time>2015-03-09T11:31:10Z</time>
      </trkpt>
      <trkpt lat="43.93084" lon="7.16366">
        <ele>699.5</ele>
        <time>2015-03-09T11:31:18Z</time>
      </trkpt>
      <trkpt lat="43.93089" lon="7.16376">
        <ele>700.46</ele>
        <time>2015-03-09T11:31:27Z</time>
      </trkpt>
      <trkpt lat="43.93091" lon="7.16386">
        <ele>701.42</ele>
        <time>2015-03-09T11:31:36Z</time>
      </trkpt>
      <trkpt lat="43.9309" lon="7.16395">
        <ele>701.9</ele>
        <time>2015-03-09T11:31:46Z</time>
      </trkpt>
      <trkpt lat="43.93084" lon="7.16405">
        <ele>703.82</ele>
        <time>2015-03-09T11:31:57Z</time>
      </trkpt>
      <trkpt lat="43.93083" lon="7.16405">
        <ele>703.82</ele>
        <time>2015-03-09T11:31:58Z</time>
      </trkpt>
      <trkpt lat="43.93077" lon="7.16415">
        <ele>704.78</ele>
        <time>2015-03-09T11:32:09Z</time>
      </trkpt>
      <trkpt lat="43.93071" lon="7.16422">
        <ele>706.71</ele>
        <time>2015-03-09T11:32:22Z</time>
      </trkpt>
      <trkpt lat="43.93064" lon="7.16434">
        <ele>707.67</ele>
        <time>2015-03-09T11:32:33Z</time>
      </trkpt>
      <trkpt lat="43.93057" lon="7.16446">
        <ele>709.11</ele>
        <time>2015-03-09T11:32:45Z</time>
      </trkpt>
      <trkpt lat="43.9305" lon="7.16455">
        <ele>711.03</ele>
        <time>2015-03-09T11:32:55Z</time>
      </trkpt>
      <trkpt lat="43.93046" lon="7.16457">
        <ele>712.95</ele>
        <time>2015-03-09T11:33:04Z</time>
      </trkpt>
      <trkpt lat="43.93041" lon="7.16463">
        <ele>715.84</ele>
        <time>2015-03-09T11:33:16Z</time>
      </trkpt>
      <trkpt lat="43.9304" lon="7.16459">
        <ele>717.76</ele>
        <time>2015-03-09T11:33:26Z</time>
      </trkpt>
      <trkpt lat="43.93038" lon="7.1645">
        <ele>719.68</ele>
        <time>2015-03-09T11:33:37Z</time>
      </trkpt>
      <trkpt lat="43.93035" lon="7.1644">
        <ele>721.13</ele>
        <time>2015-03-09T11:33:46Z</time>
      </trkpt>
      <trkpt lat="43.93034" lon="7.16438">
        <ele>721.61</ele>
        <time>2015-03-09T11:33:48Z</time>
      </trkpt>
      <trkpt lat="43.93029" lon="7.16429">
        <ele>721.61</ele>
        <time>2015-03-09T11:33:56Z</time>
      </trkpt>
      <trkpt lat="43.93027" lon="7.16423">
        <ele>722.09</ele>
        <time>2015-03-09T11:34:02Z</time>
      </trkpt>
      <trkpt lat="43.93022" lon="7.16417">
        <ele>723.05</ele>
        <time>2015-03-09T11:34:09Z</time>
      </trkpt>
      <trkpt lat="43.93018" lon="7.16416">
        <ele>723.05</ele>
        <time>2015-03-09T11:34:14Z</time>
      </trkpt>
      <trkpt lat="43.9301" lon="7.16414">
        <ele>724.49</ele>
        <time>2015-03-09T11:34:25Z</time>
      </trkpt>
      <trkpt lat="43.93007" lon="7.1641">
        <ele>724.49</ele>
        <time>2015-03-09T11:34:31Z</time>
      </trkpt>
      <trkpt lat="43.93004" lon="7.16408">
        <ele>724.49</ele>
        <time>2015-03-09T11:34:35Z</time>
      </trkpt>
      <trkpt lat="43.92999" lon="7.16408">
        <ele>723.53</ele>
        <time>2015-03-09T11:34:41Z</time>
      </trkpt>
      <trkpt lat="43.93" lon="7.16405">
        <ele>724.01</ele>
        <time>2015-03-09T11:34:43Z</time>
      </trkpt>
      <trkpt lat="43.92995" lon="7.16394">
        <ele>724.01</ele>
        <time>2015-03-09T11:34:53Z</time>
      </trkpt>
      <trkpt lat="43.92995" lon="7.16391">
        <ele>724.49</ele>
        <time>2015-03-09T11:34:56Z</time>
      </trkpt>
      <trkpt lat="43.92994" lon="7.16386">
        <ele>724.97</ele>
        <time>2015-03-09T11:35:05Z</time>
      </trkpt>
      <trkpt lat="43.92995" lon="7.16387">
        <ele>724.97</ele>
        <time>2015-03-09T11:35:27Z</time>
      </trkpt>
      <trkpt lat="43.92995" lon="7.16388">
        <ele>724.97</ele>
        <time>2015-03-09T11:35:29Z</time>
      </trkpt>
      <trkpt lat="43.93" lon="7.16392">
        <ele>724.97</ele>
        <time>2015-03-09T11:35:40Z</time>
      </trkpt>
      <trkpt lat="43.93001" lon="7.16393">
        <ele>725.45</ele>
        <time>2015-03-09T11:35:53Z</time>
      </trkpt>
      <trkpt lat="43.93004" lon="7.16393">
        <ele>725.45</ele>
        <time>2015-03-09T11:36:10Z</time>
      </trkpt>
      <trkpt lat="43.93003" lon="7.16402">
        <ele>725.45</ele>
        <time>2015-03-09T11:36:25Z</time>
      </trkpt>
      <trkpt lat="43.93008" lon="7.164">
        <ele>724.97</ele>
        <time>2015-03-09T11:36:40Z</time>
      </trkpt>
      <trkpt lat="43.93007" lon="7.16394">
        <ele>725.45</ele>
        <time>2015-03-09T11:36:57Z</time>
      </trkpt>
      <trkpt lat="43.93007" lon="7.16391">
        <ele>725.93</ele>
        <time>2015-03-09T11:37:13Z</time>
      </trkpt>
      <trkpt lat="43.93007" lon="7.1639">
        <ele>725.45</ele>
        <time>2015-03-09T11:37:29Z</time>
      </trkpt>
      <trkpt lat="43.93005" lon="7.16389">
        <ele>725.45</ele>
        <time>2015-03-09T11:37:45Z</time>
      </trkpt>
      <trkpt lat="43.93005" lon="7.16388">
        <ele>725.93</ele>
        <time>2015-03-09T11:38:04Z</time>
      </trkpt>
      <trkpt lat="43.93006" lon="7.16387">
        <ele>725.93</ele>
        <time>2015-03-09T11:38:22Z</time>
      </trkpt>
      <trkpt lat="43.93005" lon="7.16386">
        <ele>725.93</ele>
        <time>2015-03-09T11:38:43Z</time>
      </trkpt>
      <trkpt lat="43.93006" lon="7.16385">
        <ele>725.93</ele>
        <time>2015-03-09T11:39:06Z</time>
      </trkpt>
      <trkpt lat="43.93007" lon="7.16385">
        <ele>725.93</ele>
        <time>2015-03-09T11:39:27Z</time>
      </trkpt>
      <trkpt lat="43.93007" lon="7.16385">
        <ele>725.93</ele>
        <time>2015-03-09T11:39:46Z</time>
      </trkpt>
      <trkpt lat="43.93008" lon="7.16385">
        <ele>725.93</ele>
        <time>2015-03-09T11:40:02Z</time>
      </trkpt>
      <trkpt lat="43.93008" lon="7.16384">
        <ele>725.93</ele>
        <time>2015-03-09T11:40:19Z</time>
      </trkpt>
      <trkpt lat="43.93009" lon="7.16382">
        <ele>725.93</ele>
        <time>2015-03-09T11:40:32Z</time>
      </trkpt>
      <trkpt lat="43.93008" lon="7.16381">
        <ele>725.93</ele>
        <time>2015-03-09T11:40:48Z</time>
      </trkpt>
      <trkpt lat="43.93008" lon="7.16387">
        <ele>725.93</ele>
        <time>2015-03-09T11:41:03Z</time>
      </trkpt>
      <trkpt lat="43.93003" lon="7.16391">
        <ele>724.97</ele>
        <time>2015-03-09T11:41:15Z</time>
      </trkpt>
      <trkpt lat="43.93" lon="7.16394">
        <ele>725.45</ele>
        <time>2015-03-09T11:41:27Z</time>
      </trkpt>
      <trkpt lat="43.92998" lon="7.164">
        <ele>724.97</ele>
        <time>2015-03-09T11:41:37Z</time>
      </trkpt>
      <trkpt lat="43.93" lon="7.16403">
        <ele>725.93</ele>
        <time>2015-03-09T11:41:47Z</time>
      </trkpt>
      <trkpt lat="43.93001" lon="7.16406">
        <ele>725.45</ele>
        <time>2015-03-09T11:41:59Z</time>
      </trkpt>
      <trkpt lat="43.93001" lon="7.16408">
        <ele>725.45</ele>
        <time>2015-03-09T11:42:14Z</time>
      </trkpt>
      <trkpt lat="43.93001" lon="7.16408">
        <ele>725.45</ele>
        <time>2015-03-09T11:42:25Z</time>
      </trkpt>
      <trkpt lat="43.92998" lon="7.16411">
        <ele>725.45</ele>
        <time>2015-03-09T11:42:38Z</time>
      </trkpt>
      <trkpt lat="43.92991" lon="7.16424">
        <ele>724.01</ele>
        <time>2015-03-09T11:42:50Z</time>
      </trkpt>
      <trkpt lat="43.92983" lon="7.16437">
        <ele>723.53</ele>
        <time>2015-03-09T11:43:01Z</time>
      </trkpt>
      <trkpt lat="43.92978" lon="7.16447">
        <ele>723.53</ele>
        <time>2015-03-09T11:43:10Z</time>
      </trkpt>
      <trkpt lat="43.92974" lon="7.1646">
        <ele>724.01</ele>
        <time>2015-03-09T11:43:21Z</time>
      </trkpt>
      <trkpt lat="43.92971" lon="7.16469">
        <ele>724.49</ele>
        <time>2015-03-09T11:43:29Z</time>
      </trkpt>
      <trkpt lat="43.92973" lon="7.16475">
        <ele>724.49</ele>
        <time>2015-03-09T11:43:40Z</time>
      </trkpt>
      <trkpt lat="43.9297" lon="7.16478">
        <ele>724.97</ele>
        <time>2015-03-09T11:43:52Z</time>
      </trkpt>
      <trkpt lat="43.92964" lon="7.16481">
        <ele>724.49</ele>
        <time>2015-03-09T11:43:58Z</time>
      </trkpt>
      <trkpt lat="43.92961" lon="7.16487">
        <ele>724.49</ele>
        <time>2015-03-09T11:44:02Z</time>
      </trkpt>
      <trkpt lat="43.92955" lon="7.16501">
        <ele>724.97</ele>
        <time>2015-03-09T11:44:13Z</time>
      </trkpt>
      <trkpt lat="43.92949" lon="7.16516">
        <ele>725.45</ele>
        <time>2015-03-09T11:44:25Z</time>
      </trkpt>
      <trkpt lat="43.92947" lon="7.16528">
        <ele>725.45</ele>
        <time>2015-03-09T11:44:33Z</time>
      </trkpt>
      <trkpt lat="43.92945" lon="7.16547">
        <ele>726.41</ele>
        <time>2015-03-09T11:44:45Z</time>
      </trkpt>
      <trkpt lat="43.92944" lon="7.16562">
        <ele>726.41</ele>
        <time>2015-03-09T11:44:54Z</time>
      </trkpt>
      <trkpt lat="43.92942" lon="7.16576">
        <ele>726.89</ele>
        <time>2015-03-09T11:45:05Z</time>
      </trkpt>
      <trkpt lat="43.92941" lon="7.16581">
        <ele>726.89</ele>
        <time>2015-03-09T11:45:08Z</time>
      </trkpt>
      <trkpt lat="43.92938" lon="7.16586">
        <ele>726.89</ele>
        <time>2015-03-09T11:45:11Z</time>
      </trkpt>
      <trkpt lat="43.92929" lon="7.16598">
        <ele>727.86</ele>
        <time>2015-03-09T11:45:23Z</time>
      </trkpt>
      <trkpt lat="43.92925" lon="7.16606">
        <ele>728.34</ele>
        <time>2015-03-09T11:45:33Z</time>
      </trkpt>
      <trkpt lat="43.92923" lon="7.1661">
        <ele>728.34</ele>
        <time>2015-03-09T11:45:44Z</time>
      </trkpt>
      <trkpt lat="43.92919" lon="7.16615">
        <ele>728.34</ele>
        <time>2015-03-09T11:45:54Z</time>
      </trkpt>
      <trkpt lat="43.92917" lon="7.16619">
        <ele>728.82</ele>
        <time>2015-03-09T11:46:06Z</time>
      </trkpt>
      <trkpt lat="43.92913" lon="7.16629">
        <ele>728.82</ele>
        <time>2015-03-09T11:46:14Z</time>
      </trkpt>
      <trkpt lat="43.92907" lon="7.16636">
        <ele>728.82</ele>
        <time>2015-03-09T11:46:23Z</time>
      </trkpt>
      <trkpt lat="43.92908" lon="7.16639">
        <ele>729.78</ele>
        <time>2015-03-09T11:46:34Z</time>
      </trkpt>
      <trkpt lat="43.9291" lon="7.1664">
        <ele>731.7</ele>
        <time>2015-03-09T11:46:44Z</time>
      </trkpt>
      <trkpt lat="43.92911" lon="7.16639">
        <ele>732.18</ele>
        <time>2015-03-09T11:46:57Z</time>
      </trkpt>
      <trkpt lat="43.92912" lon="7.1664">
        <ele>733.62</ele>
        <time>2015-03-09T11:47:06Z</time>
      </trkpt>
      <trkpt lat="43.92916" lon="7.16642">
        <ele>736.03</ele>
        <time>2015-03-09T11:47:14Z</time>
      </trkpt>
      <trkpt lat="43.92921" lon="7.16647">
        <ele>737.47</ele>
        <time>2015-03-09T11:47:25Z</time>
      </trkpt>
      <trkpt lat="43.92922" lon="7.16646">
        <ele>738.43</ele>
        <time>2015-03-09T11:47:39Z</time>
      </trkpt>
      <trkpt lat="43.92922" lon="7.16654">
        <ele>738.43</ele>
        <time>2015-03-09T11:47:50Z</time>
      </trkpt>
      <trkpt lat="43.92924" lon="7.1666">
        <ele>739.87</ele>
        <time>2015-03-09T11:47:59Z</time>
      </trkpt>
      <trkpt lat="43.92922" lon="7.1667">
        <ele>740.35</ele>
        <time>2015-03-09T11:48:08Z</time>
      </trkpt>
      <trkpt lat="43.92922" lon="7.16674">
        <ele>740.35</ele>
        <time>2015-03-09T11:48:19Z</time>
      </trkpt>
      <trkpt lat="43.92918" lon="7.16671">
        <ele>740.35</ele>
        <time>2015-03-09T11:48:55Z</time>
      </trkpt>
      <trkpt lat="43.9292" lon="7.16672">
        <ele>740.35</ele>
        <time>2015-03-09T11:49:08Z</time>
      </trkpt>
      <trkpt lat="43.92923" lon="7.16674">
        <ele>741.79</ele>
        <time>2015-03-09T11:49:21Z</time>
      </trkpt>
      <trkpt lat="43.9292" lon="7.16674">
        <ele>740.83</ele>
        <time>2015-03-09T11:50:36Z</time>
      </trkpt>
      <trkpt lat="43.92927" lon="7.16679">
        <ele>740.83</ele>
        <time>2015-03-09T11:50:48Z</time>
      </trkpt>
      <trkpt lat="43.92926" lon="7.16676">
        <ele>742.28</ele>
        <time>2015-03-09T11:51:00Z</time>
      </trkpt>
      <trkpt lat="43.92928" lon="7.16674">
        <ele>743.72</ele>
        <time>2015-03-09T11:51:03Z</time>
      </trkpt>
      <trkpt lat="43.92931" lon="7.1667">
        <ele>746.6</ele>
        <time>2015-03-09T11:51:12Z</time>
      </trkpt>
      <trkpt lat="43.92931" lon="7.16663">
        <ele>749.97</ele>
        <time>2015-03-09T11:51:21Z</time>
      </trkpt>
      <trkpt lat="43.92934" lon="7.16657">
        <ele>752.37</ele>
        <time>2015-03-09T11:51:32Z</time>
      </trkpt>
      <trkpt lat="43.92936" lon="7.16662">
        <ele>752.85</ele>
        <time>2015-03-09T11:51:43Z</time>
      </trkpt>
      <trkpt lat="43.92939" lon="7.16669">
        <ele>754.77</ele>
        <time>2015-03-09T11:51:54Z</time>
      </trkpt>
      <trkpt lat="43.92938" lon="7.16676">
        <ele>755.25</ele>
        <time>2015-03-09T11:52:03Z</time>
      </trkpt>
      <trkpt lat="43.92938" lon="7.16676">
        <ele>754.77</ele>
        <time>2015-03-09T11:52:04Z</time>
      </trkpt>
      <trkpt lat="43.92937" lon="7.16678">
        <ele>754.77</ele>
        <time>2015-03-09T11:52:15Z</time>
      </trkpt>
      <trkpt lat="43.92937" lon="7.16678">
        <ele>754.29</ele>
        <time>2015-03-09T11:52:30Z</time>
      </trkpt>
      <trkpt lat="43.92939" lon="7.16676">
        <ele>752.37</ele>
        <time>2015-03-09T11:52:40Z</time>
      </trkpt>
      <trkpt lat="43.92939" lon="7.16674">
        <ele>754.29</ele>
        <time>2015-03-09T11:52:56Z</time>
      </trkpt>
      <trkpt lat="43.92937" lon="7.16675">
        <ele>754.77</ele>
        <time>2015-03-09T11:53:05Z</time>
      </trkpt>
      <trkpt lat="43.92944" lon="7.1667">
        <ele>755.25</ele>
        <time>2015-03-09T11:53:14Z</time>
      </trkpt>
      <trkpt lat="43.92951" lon="7.16668">
        <ele>757.18</ele>
        <time>2015-03-09T11:53:25Z</time>
      </trkpt>
      <trkpt lat="43.92953" lon="7.16662">
        <ele>755.25</ele>
        <time>2015-03-09T11:53:35Z</time>
      </trkpt>
      <trkpt lat="43.92952" lon="7.16659">
        <ele>754.29</ele>
        <time>2015-03-09T11:53:47Z</time>
      </trkpt>
      <trkpt lat="43.9295" lon="7.16661">
        <ele>754.77</ele>
        <time>2015-03-09T11:53:58Z</time>
      </trkpt>
      <trkpt lat="43.9295" lon="7.16669">
        <ele>757.66</ele>
        <time>2015-03-09T11:54:07Z</time>
      </trkpt>
      <trkpt lat="43.92957" lon="7.16677">
        <ele>759.1</ele>
        <time>2015-03-09T11:54:17Z</time>
      </trkpt>
      <trkpt lat="43.92966" lon="7.16678">
        <ele>758.14</ele>
        <time>2015-03-09T11:54:27Z</time>
      </trkpt>
      <trkpt lat="43.92971" lon="7.16682">
        <ele>759.58</ele>
        <time>2015-03-09T11:54:37Z</time>
      </trkpt>
      <trkpt lat="43.92974" lon="7.16681">
        <ele>759.58</ele>
        <time>2015-03-09T11:54:40Z</time>
      </trkpt>
      <trkpt lat="43.92985" lon="7.16683">
        <ele>759.1</ele>
        <time>2015-03-09T11:54:51Z</time>
      </trkpt>
      <trkpt lat="43.92987" lon="7.1669">
        <ele>758.62</ele>
        <time>2015-03-09T11:55:01Z</time>
      </trkpt>
      <trkpt lat="43.9299" lon="7.16695">
        <ele>758.62</ele>
        <time>2015-03-09T11:55:12Z</time>
      </trkpt>
      <trkpt lat="43.9299" lon="7.16697">
        <ele>758.62</ele>
        <time>2015-03-09T11:55:23Z</time>
      </trkpt>
      <trkpt lat="43.9299" lon="7.16698">
        <ele>758.62</ele>
        <time>2015-03-09T11:55:40Z</time>
      </trkpt>
      <trkpt lat="43.92989" lon="7.16697">
        <ele>759.1</ele>
        <time>2015-03-09T11:56:00Z</time>
      </trkpt>
      <trkpt lat="43.9299" lon="7.16698">
        <ele>759.1</ele>
        <time>2015-03-09T11:56:16Z</time>
      </trkpt>
      <trkpt lat="43.92989" lon="7.16699">
        <ele>758.62</ele>
        <time>2015-03-09T11:56:38Z</time>
      </trkpt>
      <trkpt lat="43.92989" lon="7.16699">
        <ele>759.1</ele>
        <time>2015-03-09T11:56:47Z</time>
      </trkpt>
      <trkpt lat="43.92987" lon="7.16697">
        <ele>758.62</ele>
        <time>2015-03-09T11:57:04Z</time>
      </trkpt>
      <trkpt lat="43.92978" lon="7.16702">
        <ele>759.58</ele>
        <time>2015-03-09T11:57:15Z</time>
      </trkpt>
      <trkpt lat="43.92972" lon="7.16707">
        <ele>760.06</ele>
        <time>2015-03-09T11:57:26Z</time>
      </trkpt>
      <trkpt lat="43.92971" lon="7.16705">
        <ele>759.58</ele>
        <time>2015-03-09T11:57:37Z</time>
      </trkpt>
      <trkpt lat="43.92963" lon="7.16705">
        <ele>761.02</ele>
        <time>2015-03-09T11:57:46Z</time>
      </trkpt>
      <trkpt lat="43.92954" lon="7.1671">
        <ele>761.02</ele>
        <time>2015-03-09T11:57:57Z</time>
      </trkpt>
      <trkpt lat="43.92951" lon="7.1671">
        <ele>760.54</ele>
        <time>2015-03-09T11:58:07Z</time>
      </trkpt>
      <trkpt lat="43.92947" lon="7.1671">
        <ele>759.58</ele>
        <time>2015-03-09T11:58:15Z</time>
      </trkpt>
      <trkpt lat="43.92945" lon="7.16711">
        <ele>759.1</ele>
        <time>2015-03-09T11:58:25Z</time>
      </trkpt>
      <trkpt lat="43.92942" lon="7.16715">
        <ele>758.62</ele>
        <time>2015-03-09T11:58:34Z</time>
      </trkpt>
      <trkpt lat="43.92942" lon="7.16717">
        <ele>758.62</ele>
        <time>2015-03-09T11:58:46Z</time>
      </trkpt>
      <trkpt lat="43.9294" lon="7.16716">
        <ele>757.18</ele>
        <time>2015-03-09T11:58:59Z</time>
      </trkpt>
      <trkpt lat="43.92939" lon="7.16717">
        <ele>756.21</ele>
        <time>2015-03-09T11:59:12Z</time>
      </trkpt>
      <trkpt lat="43.92938" lon="7.16718">
        <ele>755.73</ele>
        <time>2015-03-09T11:59:26Z</time>
      </trkpt>
      <trkpt lat="43.92937" lon="7.16718">
        <ele>756.21</ele>
        <time>2015-03-09T11:59:41Z</time>
      </trkpt>
      <trkpt lat="43.92936" lon="7.16716">
        <ele>755.73</ele>
        <time>2015-03-09T11:59:52Z</time>
      </trkpt>
      <trkpt lat="43.92935" lon="7.16713">
        <ele>755.73</ele>
        <time>2015-03-09T12:00:04Z</time>
      </trkpt>
      <trkpt lat="43.92933" lon="7.16712">
        <ele>755.25</ele>
        <time>2015-03-09T12:00:15Z</time>
      </trkpt>
      <trkpt lat="43.92932" lon="7.16711">
        <ele>753.81</ele>
        <time>2015-03-09T12:00:26Z</time>
      </trkpt>
      <trkpt lat="43.92931" lon="7.16712">
        <ele>751.89</ele>
        <time>2015-03-09T12:00:40Z</time>
      </trkpt>
      <trkpt lat="43.92931" lon="7.16712">
        <ele>752.85</ele>
        <time>2015-03-09T12:00:53Z</time>
      </trkpt>
      <trkpt lat="43.92929" lon="7.16717">
        <ele>750.93</ele>
        <time>2015-03-09T12:01:05Z</time>
      </trkpt>
      <trkpt lat="43.92927" lon="7.16724">
        <ele>750.45</ele>
        <time>2015-03-09T12:01:14Z</time>
      </trkpt>
      <trkpt lat="43.92927" lon="7.16728">
        <ele>751.41</ele>
        <time>2015-03-09T12:01:28Z</time>
      </trkpt>
      <trkpt lat="43.92927" lon="7.16733">
        <ele>750.93</ele>
        <time>2015-03-09T12:01:41Z</time>
      </trkpt>
      <trkpt lat="43.92923" lon="7.16747">
        <ele>751.41</ele>
        <time>2015-03-09T12:01:52Z</time>
      </trkpt>
      <trkpt lat="43.92921" lon="7.1675">
        <ele>749.49</ele>
        <time>2015-03-09T12:01:57Z</time>
      </trkpt>
      <trkpt lat="43.92919" lon="7.16751">
        <ele>748.52</ele>
        <time>2015-03-09T12:01:59Z</time>
      </trkpt>
      <trkpt lat="43.92919" lon="7.16759">
        <ele>748.04</ele>
        <time>2015-03-09T12:02:08Z</time>
      </trkpt>
      <trkpt lat="43.92919" lon="7.16765">
        <ele>748.52</ele>
        <time>2015-03-09T12:02:19Z</time>
      </trkpt>
      <trkpt lat="43.92917" lon="7.1677">
        <ele>748.52</ele>
        <time>2015-03-09T12:02:30Z</time>
      </trkpt>
      <trkpt lat="43.92916" lon="7.16772">
        <ele>748.52</ele>
        <time>2015-03-09T12:02:54Z</time>
      </trkpt>
      <trkpt lat="43.92917" lon="7.16772">
        <ele>748.52</ele>
        <time>2015-03-09T12:03:08Z</time>
      </trkpt>
      <trkpt lat="43.92916" lon="7.16774">
        <ele>748.52</ele>
        <time>2015-03-09T12:03:25Z</time>
      </trkpt>
      <trkpt lat="43.92911" lon="7.16786">
        <ele>748.52</ele>
        <time>2015-03-09T12:03:35Z</time>
      </trkpt>
      <trkpt lat="43.92909" lon="7.16794">
        <ele>748.52</ele>
        <time>2015-03-09T12:03:44Z</time>
      </trkpt>
      <trkpt lat="43.92908" lon="7.16798">
        <ele>748.52</ele>
        <time>2015-03-09T12:03:48Z</time>
      </trkpt>
      <trkpt lat="43.92903" lon="7.16811">
        <ele>749</ele>
        <time>2015-03-09T12:03:56Z</time>
      </trkpt>
      <trkpt lat="43.929" lon="7.1682">
        <ele>749.49</ele>
        <time>2015-03-09T12:04:06Z</time>
      </trkpt>
      <trkpt lat="43.92897" lon="7.1683">
        <ele>749.49</ele>
        <time>2015-03-09T12:04:16Z</time>
      </trkpt>
      <trkpt lat="43.92894" lon="7.16843">
        <ele>749.97</ele>
        <time>2015-03-09T12:04:26Z</time>
      </trkpt>
      <trkpt lat="43.9289" lon="7.16849">
        <ele>751.41</ele>
        <time>2015-03-09T12:04:37Z</time>
      </trkpt>
      <trkpt lat="43.92888" lon="7.16853">
        <ele>752.85</ele>
        <time>2015-03-09T12:04:48Z</time>
      </trkpt>
      <trkpt lat="43.92891" lon="7.16863">
        <ele>754.29</ele>
        <time>2015-03-09T12:04:58Z</time>
      </trkpt>
      <trkpt lat="43.92894" lon="7.16872">
        <ele>754.77</ele>
        <time>2015-03-09T12:05:06Z</time>
      </trkpt>
      <trkpt lat="43.92894" lon="7.16889">
        <ele>756.21</ele>
        <time>2015-03-09T12:05:16Z</time>
      </trkpt>
      <trkpt lat="43.92893" lon="7.16898">
        <ele>757.66</ele>
        <time>2015-03-09T12:05:26Z</time>
      </trkpt>
      <trkpt lat="43.92892" lon="7.16896">
        <ele>758.62</ele>
        <time>2015-03-09T12:05:33Z</time>
      </trkpt>
      <trkpt lat="43.92884" lon="7.16892">
        <ele>759.58</ele>
        <time>2015-03-09T12:05:43Z</time>
      </trkpt>
      <trkpt lat="43.92881" lon="7.1689">
        <ele>760.06</ele>
        <time>2015-03-09T12:05:55Z</time>
      </trkpt>
      <trkpt lat="43.92879" lon="7.16888">
        <ele>760.06</ele>
        <time>2015-03-09T12:06:21Z</time>
      </trkpt>
      <trkpt lat="43.9288" lon="7.16887">
        <ele>760.54</ele>
        <time>2015-03-09T12:06:37Z</time>
      </trkpt>
      <trkpt lat="43.92887" lon="7.16897">
        <ele>762.46</ele>
        <time>2015-03-09T12:06:49Z</time>
      </trkpt>
      <trkpt lat="43.92886" lon="7.16903">
        <ele>763.42</ele>
        <time>2015-03-09T12:06:54Z</time>
      </trkpt>
      <trkpt lat="43.92885" lon="7.16903">
        <ele>763.42</ele>
        <time>2015-03-09T12:06:56Z</time>
      </trkpt>
      <trkpt lat="43.92876" lon="7.16909">
        <ele>765.83</ele>
        <time>2015-03-09T12:07:08Z</time>
      </trkpt>
      <trkpt lat="43.92878" lon="7.16915">
        <ele>767.27</ele>
        <time>2015-03-09T12:07:18Z</time>
      </trkpt>
      <trkpt lat="43.9288" lon="7.16924">
        <ele>769.67</ele>
        <time>2015-03-09T12:07:29Z</time>
      </trkpt>
      <trkpt lat="43.92879" lon="7.16928">
        <ele>769.67</ele>
        <time>2015-03-09T12:07:32Z</time>
      </trkpt>
      <trkpt lat="43.9288" lon="7.16938">
        <ele>771.11</ele>
        <time>2015-03-09T12:07:41Z</time>
      </trkpt>
      <trkpt lat="43.92878" lon="7.1695">
        <ele>772.08</ele>
        <time>2015-03-09T12:07:52Z</time>
      </trkpt>
      <trkpt lat="43.92876" lon="7.16958">
        <ele>772.56</ele>
        <time>2015-03-09T12:08:04Z</time>
      </trkpt>
      <trkpt lat="43.92872" lon="7.16965">
        <ele>772.56</ele>
        <time>2015-03-09T12:08:12Z</time>
      </trkpt>
      <trkpt lat="43.92865" lon="7.1697">
        <ele>772.56</ele>
        <time>2015-03-09T12:08:21Z</time>
      </trkpt>
      <trkpt lat="43.92861" lon="7.16976">
        <ele>772.08</ele>
        <time>2015-03-09T12:08:28Z</time>
      </trkpt>
      <trkpt lat="43.92861" lon="7.16977">
        <ele>772.08</ele>
        <time>2015-03-09T12:08:43Z</time>
      </trkpt>
      <trkpt lat="43.92859" lon="7.16983">
        <ele>772.08</ele>
        <time>2015-03-09T12:08:57Z</time>
      </trkpt>
      <trkpt lat="43.9286" lon="7.16986">
        <ele>772.08</ele>
        <time>2015-03-09T12:09:07Z</time>
      </trkpt>
      <trkpt lat="43.9286" lon="7.16992">
        <ele>772.08</ele>
        <time>2015-03-09T12:09:19Z</time>
      </trkpt>
      <trkpt lat="43.92856" lon="7.16989">
        <ele>772.56</ele>
        <time>2015-03-09T12:09:29Z</time>
      </trkpt>
      <trkpt lat="43.92854" lon="7.16997">
        <ele>772.08</ele>
        <time>2015-03-09T12:09:39Z</time>
      </trkpt>
      <trkpt lat="43.92849" lon="7.17001">
        <ele>772.08</ele>
        <time>2015-03-09T12:09:48Z</time>
      </trkpt>
      <trkpt lat="43.92849" lon="7.17003">
        <ele>772.08</ele>
        <time>2015-03-09T12:10:00Z</time>
      </trkpt>
      <trkpt lat="43.92849" lon="7.17003">
        <ele>772.56</ele>
        <time>2015-03-09T12:10:22Z</time>
      </trkpt>
      <trkpt lat="43.92849" lon="7.17003">
        <ele>772.56</ele>
        <time>2015-03-09T12:10:43Z</time>
      </trkpt>
      <trkpt lat="43.9285" lon="7.17001">
        <ele>772.08</ele>
        <time>2015-03-09T12:10:53Z</time>
      </trkpt>
      <trkpt lat="43.92853" lon="7.16999">
        <ele>771.11</ele>
        <time>2015-03-09T12:11:02Z</time>
      </trkpt>
      <trkpt lat="43.92853" lon="7.16999">
        <ele>771.6</ele>
        <time>2015-03-09T12:11:14Z</time>
      </trkpt>
      <trkpt lat="43.92857" lon="7.16996">
        <ele>773.52</ele>
        <time>2015-03-09T12:11:24Z</time>
      </trkpt>
      <trkpt lat="43.92862" lon="7.16992">
        <ele>774.96</ele>
        <time>2015-03-09T12:11:32Z</time>
      </trkpt>
      <trkpt lat="43.9287" lon="7.16986">
        <ele>774.96</ele>
        <time>2015-03-09T12:11:42Z</time>
      </trkpt>
      <trkpt lat="43.92873" lon="7.16987">
        <ele>774.96</ele>
        <time>2015-03-09T12:11:51Z</time>
      </trkpt>
      <trkpt lat="43.9287" lon="7.16986">
        <ele>774.96</ele>
        <time>2015-03-09T12:12:02Z</time>
      </trkpt>
      <trkpt lat="43.92869" lon="7.16986">
        <ele>774.96</ele>
        <time>2015-03-09T12:12:03Z</time>
      </trkpt>
      <trkpt lat="43.92865" lon="7.16991">
        <ele>774.96</ele>
        <time>2015-03-09T12:12:10Z</time>
      </trkpt>
      <trkpt lat="43.92862" lon="7.16996">
        <ele>774</ele>
        <time>2015-03-09T12:12:18Z</time>
      </trkpt>
      <trkpt lat="43.92861" lon="7.16999">
        <ele>771.6</ele>
        <time>2015-03-09T12:12:27Z</time>
      </trkpt>
      <trkpt lat="43.9286" lon="7.16996">
        <ele>771.6</ele>
        <time>2015-03-09T12:12:31Z</time>
      </trkpt>
      <trkpt lat="43.9286" lon="7.16991">
        <ele>771.11</ele>
        <time>2015-03-09T12:12:41Z</time>
      </trkpt>
      <trkpt lat="43.92853" lon="7.16991">
        <ele>768.71</ele>
        <time>2015-03-09T12:12:51Z</time>
      </trkpt>
      <trkpt lat="43.92848" lon="7.16997">
        <ele>768.23</ele>
        <time>2015-03-09T12:12:59Z</time>
      </trkpt>
      <trkpt lat="43.92846" lon="7.16999">
        <ele>768.23</ele>
        <time>2015-03-09T12:13:02Z</time>
      </trkpt>
      <trkpt lat="43.92845" lon="7.17001">
        <ele>768.23</ele>
        <time>2015-03-09T12:13:10Z</time>
      </trkpt>
      <trkpt lat="43.92845" lon="7.17006">
        <ele>769.67</ele>
        <time>2015-03-09T12:13:27Z</time>
      </trkpt>
      <trkpt lat="43.92843" lon="7.17009">
        <ele>768.71</ele>
        <time>2015-03-09T12:13:36Z</time>
      </trkpt>
      <trkpt lat="43.92841" lon="7.17011">
        <ele>768.23</ele>
        <time>2015-03-09T12:13:47Z</time>
      </trkpt>
      <trkpt lat="43.9284" lon="7.17012">
        <ele>768.71</ele>
        <time>2015-03-09T12:14:01Z</time>
      </trkpt>
      <trkpt lat="43.92844" lon="7.17005">
        <ele>769.19</ele>
        <time>2015-03-09T12:14:13Z</time>
      </trkpt>
      <trkpt lat="43.92844" lon="7.17">
        <ele>767.75</ele>
        <time>2015-03-09T12:14:22Z</time>
      </trkpt>
      <trkpt lat="43.92845" lon="7.16999">
        <ele>768.71</ele>
        <time>2015-03-09T12:14:31Z</time>
      </trkpt>
      <trkpt lat="43.92847" lon="7.16995">
        <ele>769.19</ele>
        <time>2015-03-09T12:14:40Z</time>
      </trkpt>
      <trkpt lat="43.92854" lon="7.16989">
        <ele>770.15</ele>
        <time>2015-03-09T12:14:51Z</time>
      </trkpt>
      <trkpt lat="43.92859" lon="7.16985">
        <ele>772.08</ele>
        <time>2015-03-09T12:15:01Z</time>
      </trkpt>
      <trkpt lat="43.92866" lon="7.16975">
        <ele>772.08</ele>
        <time>2015-03-09T12:15:11Z</time>
      </trkpt>
      <trkpt lat="43.92867" lon="7.16974">
        <ele>772.08</ele>
        <time>2015-03-09T12:15:13Z</time>
      </trkpt>
      <trkpt lat="43.92869" lon="7.16972">
        <ele>772.08</ele>
        <time>2015-03-09T12:15:15Z</time>
      </trkpt>
      <trkpt lat="43.92879" lon="7.1696">
        <ele>771.11</ele>
        <time>2015-03-09T12:15:28Z</time>
      </trkpt>
      <trkpt lat="43.92884" lon="7.16949">
        <ele>770.15</ele>
        <time>2015-03-09T12:15:39Z</time>
      </trkpt>
      <trkpt lat="43.92885" lon="7.16939">
        <ele>768.71</ele>
        <time>2015-03-09T12:15:50Z</time>
      </trkpt>
      <trkpt lat="43.92884" lon="7.1693">
        <ele>767.75</ele>
        <time>2015-03-09T12:15:59Z</time>
      </trkpt>
      <trkpt lat="43.92883" lon="7.16927">
        <ele>767.27</ele>
        <time>2015-03-09T12:16:01Z</time>
      </trkpt>
      <trkpt lat="43.9288" lon="7.16914">
        <ele>764.39</ele>
        <time>2015-03-09T12:16:10Z</time>
      </trkpt>
      <trkpt lat="43.92881" lon="7.169">
        <ele>761.98</ele>
        <time>2015-03-09T12:16:20Z</time>
      </trkpt>
      <trkpt lat="43.92883" lon="7.16896">
        <ele>760.06</ele>
        <time>2015-03-09T12:16:26Z</time>
      </trkpt>
      <trkpt lat="43.9288" lon="7.1689">
        <ele>759.1</ele>
        <time>2015-03-09T12:16:34Z</time>
      </trkpt>
      <trkpt lat="43.92881" lon="7.16887">
        <ele>757.66</ele>
        <time>2015-03-09T12:16:41Z</time>
      </trkpt>
      <trkpt lat="43.92882" lon="7.16885">
        <ele>757.18</ele>
        <time>2015-03-09T12:16:42Z</time>
      </trkpt>
      <trkpt lat="43.92883" lon="7.16875">
        <ele>754.29</ele>
        <time>2015-03-09T12:16:51Z</time>
      </trkpt>
      <trkpt lat="43.92886" lon="7.16868">
        <ele>751.89</ele>
        <time>2015-03-09T12:17:00Z</time>
      </trkpt>
      <trkpt lat="43.92891" lon="7.16858">
        <ele>750.45</ele>
        <time>2015-03-09T12:17:11Z</time>
      </trkpt>
      <trkpt lat="43.92897" lon="7.16844">
        <ele>749</ele>
        <time>2015-03-09T12:17:22Z</time>
      </trkpt>
      <trkpt lat="43.92901" lon="7.16834">
        <ele>748.52</ele>
        <time>2015-03-09T12:17:30Z</time>
      </trkpt>
      <trkpt lat="43.92902" lon="7.16827">
        <ele>748.52</ele>
        <time>2015-03-09T12:17:35Z</time>
      </trkpt>
      <trkpt lat="43.92904" lon="7.16819">
        <ele>748.04</ele>
        <time>2015-03-09T12:17:40Z</time>
      </trkpt>
      <trkpt lat="43.92906" lon="7.16811">
        <ele>747.56</ele>
        <time>2015-03-09T12:17:45Z</time>
      </trkpt>
      <trkpt lat="43.92913" lon="7.16798">
        <ele>747.56</ele>
        <time>2015-03-09T12:17:55Z</time>
      </trkpt>
      <trkpt lat="43.92913" lon="7.16791">
        <ele>748.04</ele>
        <time>2015-03-09T12:17:59Z</time>
      </trkpt>
      <trkpt lat="43.92914" lon="7.16786">
        <ele>747.56</ele>
        <time>2015-03-09T12:18:02Z</time>
      </trkpt>
      <trkpt lat="43.92918" lon="7.16774">
        <ele>748.04</ele>
        <time>2015-03-09T12:18:13Z</time>
      </trkpt>
      <trkpt lat="43.92918" lon="7.16764">
        <ele>748.04</ele>
        <time>2015-03-09T12:18:23Z</time>
      </trkpt>
      <trkpt lat="43.92918" lon="7.16762">
        <ele>747.56</ele>
        <time>2015-03-09T12:18:25Z</time>
      </trkpt>
      <trkpt lat="43.92913" lon="7.16754">
        <ele>746.6</ele>
        <time>2015-03-09T12:18:36Z</time>
      </trkpt>
      <trkpt lat="43.92913" lon="7.16753">
        <ele>747.08</ele>
        <time>2015-03-09T12:19:00Z</time>
      </trkpt>
      <trkpt lat="43.92911" lon="7.16751">
        <ele>747.08</ele>
        <time>2015-03-09T12:19:30Z</time>
      </trkpt>
      <trkpt lat="43.92911" lon="7.16751">
        <ele>746.6</ele>
        <time>2015-03-09T12:19:57Z</time>
      </trkpt>
      <trkpt lat="43.92912" lon="7.1675">
        <ele>746.6</ele>
        <time>2015-03-09T12:20:02Z</time>
      </trkpt>
      <trkpt lat="43.92914" lon="7.16746">
        <ele>746.12</ele>
        <time>2015-03-09T12:20:06Z</time>
      </trkpt>
      <trkpt lat="43.92916" lon="7.16728">
        <ele>745.16</ele>
        <time>2015-03-09T12:20:19Z</time>
      </trkpt>
      <trkpt lat="43.92916" lon="7.16715">
        <ele>744.2</ele>
        <time>2015-03-09T12:20:30Z</time>
      </trkpt>
      <trkpt lat="43.9292" lon="7.16703">
        <ele>742.76</ele>
        <time>2015-03-09T12:20:42Z</time>
      </trkpt>
      <trkpt lat="43.92921" lon="7.16692">
        <ele>741.79</ele>
        <time>2015-03-09T12:20:54Z</time>
      </trkpt>
      <trkpt lat="43.92924" lon="7.16682">
        <ele>741.31</ele>
        <time>2015-03-09T12:21:03Z</time>
      </trkpt>
      <trkpt lat="43.92928" lon="7.16665">
        <ele>739.87</ele>
        <time>2015-03-09T12:21:15Z</time>
      </trkpt>
      <trkpt lat="43.92921" lon="7.16664">
        <ele>738.91</ele>
        <time>2015-03-09T12:21:22Z</time>
      </trkpt>
      <trkpt lat="43.92918" lon="7.16669">
        <ele>738.91</ele>
        <time>2015-03-09T12:21:27Z</time>
      </trkpt>
      <trkpt lat="43.92913" lon="7.16682">
        <ele>736.99</ele>
        <time>2015-03-09T12:21:38Z</time>
      </trkpt>
      <trkpt lat="43.92907" lon="7.167">
        <ele>735.55</ele>
        <time>2015-03-09T12:21:49Z</time>
      </trkpt>
      <trkpt lat="43.92905" lon="7.16704">
        <ele>735.07</ele>
        <time>2015-03-09T12:21:52Z</time>
      </trkpt>
      <trkpt lat="43.92902" lon="7.16715">
        <ele>733.14</ele>
        <time>2015-03-09T12:22:02Z</time>
      </trkpt>
      <trkpt lat="43.92897" lon="7.16727">
        <ele>732.66</ele>
        <time>2015-03-09T12:22:09Z</time>
      </trkpt>
      <trkpt lat="43.92893" lon="7.16729">
        <ele>732.66</ele>
        <time>2015-03-09T12:22:18Z</time>
      </trkpt>
      <trkpt lat="43.92893" lon="7.16722">
        <ele>731.22</ele>
        <time>2015-03-09T12:22:28Z</time>
      </trkpt>
      <trkpt lat="43.92895" lon="7.16717">
        <ele>730.74</ele>
        <time>2015-03-09T12:22:43Z</time>
      </trkpt>
      <trkpt lat="43.92894" lon="7.16707">
        <ele>729.78</ele>
        <time>2015-03-09T12:22:53Z</time>
      </trkpt>
      <trkpt lat="43.92893" lon="7.16699">
        <ele>729.3</ele>
        <time>2015-03-09T12:23:03Z</time>
      </trkpt>
      <trkpt lat="43.92894" lon="7.16679">
        <ele>728.82</ele>
        <time>2015-03-09T12:23:16Z</time>
      </trkpt>
      <trkpt lat="43.92897" lon="7.16671">
        <ele>729.3</ele>
        <time>2015-03-09T12:23:21Z</time>
      </trkpt>
      <trkpt lat="43.92898" lon="7.16668">
        <ele>728.82</ele>
        <time>2015-03-09T12:23:24Z</time>
      </trkpt>
      <trkpt lat="43.92899" lon="7.16663">
        <ele>728.82</ele>
        <time>2015-03-09T12:23:27Z</time>
      </trkpt>
      <trkpt lat="43.92902" lon="7.16646">
        <ele>729.3</ele>
        <time>2015-03-09T12:23:39Z</time>
      </trkpt>
      <trkpt lat="43.92907" lon="7.16636">
        <ele>729.3</ele>
        <time>2015-03-09T12:23:50Z</time>
      </trkpt>
      <trkpt lat="43.92907" lon="7.16635">
        <ele>728.82</ele>
        <time>2015-03-09T12:23:51Z</time>
      </trkpt>
      <trkpt lat="43.92908" lon="7.16633">
        <ele>728.82</ele>
        <time>2015-03-09T12:23:53Z</time>
      </trkpt>
      <trkpt lat="43.92914" lon="7.16625">
        <ele>728.82</ele>
        <time>2015-03-09T12:24:03Z</time>
      </trkpt>
      <trkpt lat="43.92919" lon="7.16614">
        <ele>728.34</ele>
        <time>2015-03-09T12:24:12Z</time>
      </trkpt>
      <trkpt lat="43.92924" lon="7.16607">
        <ele>728.34</ele>
        <time>2015-03-09T12:24:21Z</time>
      </trkpt>
      <trkpt lat="43.92934" lon="7.16592">
        <ele>727.37</ele>
        <time>2015-03-09T12:24:32Z</time>
      </trkpt>
      <trkpt lat="43.92935" lon="7.16591">
        <ele>727.37</ele>
        <time>2015-03-09T12:24:33Z</time>
      </trkpt>
      <trkpt lat="43.9294" lon="7.16584">
        <ele>726.89</ele>
        <time>2015-03-09T12:24:38Z</time>
      </trkpt>
      <trkpt lat="43.92946" lon="7.16571">
        <ele>726.41</ele>
        <time>2015-03-09T12:24:47Z</time>
      </trkpt>
      <trkpt lat="43.92947" lon="7.16559">
        <ele>726.41</ele>
        <time>2015-03-09T12:24:55Z</time>
      </trkpt>
      <trkpt lat="43.92948" lon="7.16549">
        <ele>726.41</ele>
        <time>2015-03-09T12:25:02Z</time>
      </trkpt>
      <trkpt lat="43.92948" lon="7.16544">
        <ele>725.93</ele>
        <time>2015-03-09T12:25:05Z</time>
      </trkpt>
      <trkpt lat="43.92948" lon="7.16539">
        <ele>725.93</ele>
        <time>2015-03-09T12:25:08Z</time>
      </trkpt>
      <trkpt lat="43.92951" lon="7.16526">
        <ele>725.45</ele>
        <time>2015-03-09T12:25:18Z</time>
      </trkpt>
      <trkpt lat="43.92951" lon="7.16525">
        <ele>725.45</ele>
        <time>2015-03-09T12:25:19Z</time>
      </trkpt>
      <trkpt lat="43.92951" lon="7.16521">
        <ele>725.45</ele>
        <time>2015-03-09T12:25:21Z</time>
      </trkpt>
      <trkpt lat="43.92953" lon="7.16502">
        <ele>725.45</ele>
        <time>2015-03-09T12:25:32Z</time>
      </trkpt>
      <trkpt lat="43.92954" lon="7.165">
        <ele>725.45</ele>
        <time>2015-03-09T12:25:34Z</time>
      </trkpt>
      <trkpt lat="43.92955" lon="7.16497">
        <ele>724.97</ele>
        <time>2015-03-09T12:25:36Z</time>
      </trkpt>
      <trkpt lat="43.92957" lon="7.16491">
        <ele>724.97</ele>
        <time>2015-03-09T12:25:40Z</time>
      </trkpt>
      <trkpt lat="43.92959" lon="7.16487">
        <ele>724.97</ele>
        <time>2015-03-09T12:25:44Z</time>
      </trkpt>
      <trkpt lat="43.92968" lon="7.16483">
        <ele>724.97</ele>
        <time>2015-03-09T12:25:53Z</time>
      </trkpt>
      <trkpt lat="43.92976" lon="7.16483">
        <ele>725.45</ele>
        <time>2015-03-09T12:26:00Z</time>
      </trkpt>
      <trkpt lat="43.92981" lon="7.16483">
        <ele>726.41</ele>
        <time>2015-03-09T12:26:06Z</time>
      </trkpt>
      <trkpt lat="43.92988" lon="7.16477">
        <ele>726.89</ele>
        <time>2015-03-09T12:26:15Z</time>
      </trkpt>
      <trkpt lat="43.92988" lon="7.16475">
        <ele>726.89</ele>
        <time>2015-03-09T12:26:17Z</time>
      </trkpt>
      <trkpt lat="43.92992" lon="7.16464">
        <ele>726.41</ele>
        <time>2015-03-09T12:26:27Z</time>
      </trkpt>
      <trkpt lat="43.92994" lon="7.16461">
        <ele>726.89</ele>
        <time>2015-03-09T12:26:40Z</time>
      </trkpt>
      <trkpt lat="43.92995" lon="7.16462">
        <ele>726.89</ele>
        <time>2015-03-09T12:26:59Z</time>
      </trkpt>
      <trkpt lat="43.92996" lon="7.16463">
        <ele>727.37</ele>
        <time>2015-03-09T12:27:10Z</time>
      </trkpt>
      <trkpt lat="43.92996" lon="7.16462">
        <ele>727.37</ele>
        <time>2015-03-09T12:27:25Z</time>
      </trkpt>
      <trkpt lat="43.92996" lon="7.16463">
        <ele>727.37</ele>
        <time>2015-03-09T12:27:45Z</time>
      </trkpt>
      <trkpt lat="43.92996" lon="7.16462">
        <ele>727.37</ele>
        <time>2015-03-09T12:28:02Z</time>
      </trkpt>
      <trkpt lat="43.92996" lon="7.16461">
        <ele>727.86</ele>
        <time>2015-03-09T12:28:15Z</time>
      </trkpt>
      <trkpt lat="43.92994" lon="7.16461">
        <ele>726.89</ele>
        <time>2015-03-09T12:28:30Z</time>
      </trkpt>
      <trkpt lat="43.92994" lon="7.16461">
        <ele>726.89</ele>
        <time>2015-03-09T12:28:45Z</time>
      </trkpt>
      <trkpt lat="43.92994" lon="7.16461">
        <ele>726.89</ele>
        <time>2015-03-09T12:29:03Z</time>
      </trkpt>
      <trkpt lat="43.92994" lon="7.16461">
        <ele>730.26</ele>
        <time>2015-03-09T12:29:18Z</time>
      </trkpt>
      <trkpt lat="43.92994" lon="7.16461">
        <ele>727.86</ele>
        <time>2015-03-09T12:29:19Z</time>
      </trkpt>
      <trkpt lat="43.92994" lon="7.16461">
        <ele>726.89</ele>
        <time>2015-03-09T12:29:21Z</time>
      </trkpt>
      <trkpt lat="43.92994" lon="7.16462">
        <ele>727.86</ele>
        <time>2015-03-09T12:29:41Z</time>
      </trkpt>
      <trkpt lat="43.92995" lon="7.16461">
        <ele>727.37</ele>
        <time>2015-03-09T12:29:54Z</time>
      </trkpt>
      <trkpt lat="43.92995" lon="7.16461">
        <ele>727.37</ele>
        <time>2015-03-09T12:30:14Z</time>
      </trkpt>
      <trkpt lat="43.92995" lon="7.16461">
        <ele>727.37</ele>
        <time>2015-03-09T12:30:36Z</time>
      </trkpt>
      <trkpt lat="43.92995" lon="7.16461">
        <ele>726.89</ele>
        <time>2015-03-09T12:30:53Z</time>
      </trkpt>
      <trkpt lat="43.92995" lon="7.1646">
        <ele>727.37</ele>
        <time>2015-03-09T12:31:16Z</time>
      </trkpt>
      <trkpt lat="43.92994" lon="7.1646">
        <ele>727.37</ele>
        <time>2015-03-09T12:31:42Z</time>
      </trkpt>
      <trkpt lat="43.92994" lon="7.1646">
        <ele>727.37</ele>
        <time>2015-03-09T12:32:07Z</time>
      </trkpt>
      <trkpt lat="43.92994" lon="7.1646">
        <ele>727.37</ele>
        <time>2015-03-09T12:32:30Z</time>
      </trkpt>
      <trkpt lat="43.92994" lon="7.1646">
        <ele>727.37</ele>
        <time>2015-03-09T12:32:54Z</time>
      </trkpt>
      <trkpt lat="43.92994" lon="7.1646">
        <ele>727.86</ele>
        <time>2015-03-09T12:33:19Z</time>
      </trkpt>
      <trkpt lat="43.92993" lon="7.1646">
        <ele>727.86</ele>
        <time>2015-03-09T12:33:45Z</time>
      </trkpt>
      <trkpt lat="43.92993" lon="7.1646">
        <ele>727.37</ele>
        <time>2015-03-09T12:34:10Z</time>
      </trkpt>
      <trkpt lat="43.92993" lon="7.1646">
        <ele>727.86</ele>
        <time>2015-03-09T12:34:37Z</time>
      </trkpt>
      <trkpt lat="43.92992" lon="7.1646">
        <ele>727.86</ele>
        <time>2015-03-09T12:35:03Z</time>
      </trkpt>
      <trkpt lat="43.92992" lon="7.1646">
        <ele>727.86</ele>
        <time>2015-03-09T12:35:31Z</time>
      </trkpt>
      <trkpt lat="43.92992" lon="7.1646">
        <ele>728.34</ele>
        <time>2015-03-09T12:35:58Z</time>
      </trkpt>
      <trkpt lat="43.92992" lon="7.16461">
        <ele>728.34</ele>
        <time>2015-03-09T12:36:23Z</time>
      </trkpt>
      <trkpt lat="43.92992" lon="7.1646">
        <ele>728.34</ele>
        <time>2015-03-09T12:36:46Z</time>
      </trkpt>
      <trkpt lat="43.92992" lon="7.1646">
        <ele>728.34</ele>
        <time>2015-03-09T12:37:09Z</time>
      </trkpt>
      <trkpt lat="43.92992" lon="7.16461">
        <ele>728.34</ele>
        <time>2015-03-09T12:37:38Z</time>
      </trkpt>
      <trkpt lat="43.92993" lon="7.1646">
        <ele>728.34</ele>
        <time>2015-03-09T12:38:07Z</time>
      </trkpt>
      <trkpt lat="43.92993" lon="7.1646">
        <ele>728.82</ele>
        <time>2015-03-09T12:38:31Z</time>
      </trkpt>
      <trkpt lat="43.92993" lon="7.1646">
        <ele>728.34</ele>
        <time>2015-03-09T12:38:56Z</time>
      </trkpt>
      <trkpt lat="43.92993" lon="7.1646">
        <ele>728.34</ele>
        <time>2015-03-09T12:39:23Z</time>
      </trkpt>
      <trkpt lat="43.92993" lon="7.1646">
        <ele>727.86</ele>
        <time>2015-03-09T12:39:54Z</time>
      </trkpt>
      <trkpt lat="43.92994" lon="7.1646">
        <ele>727.86</ele>
        <time>2015-03-09T12:40:22Z</time>
      </trkpt>
      <trkpt lat="43.92994" lon="7.1646">
        <ele>728.34</ele>
        <time>2015-03-09T12:40:49Z</time>
      </trkpt>
      <trkpt lat="43.92993" lon="7.1646">
        <ele>727.86</ele>
        <time>2015-03-09T12:41:13Z</time>
      </trkpt>
      <trkpt lat="43.92993" lon="7.16459">
        <ele>727.37</ele>
        <time>2015-03-09T12:41:41Z</time>
      </trkpt>
      <trkpt lat="43.92993" lon="7.16459">
        <ele>727.86</ele>
        <time>2015-03-09T12:42:07Z</time>
      </trkpt>
      <trkpt lat="43.92993" lon="7.16459">
        <ele>727.86</ele>
        <time>2015-03-09T12:42:33Z</time>
      </trkpt>
      <trkpt lat="43.92993" lon="7.16458">
        <ele>728.34</ele>
        <time>2015-03-09T12:42:58Z</time>
      </trkpt>
      <trkpt lat="43.92994" lon="7.16459">
        <ele>727.86</ele>
        <time>2015-03-09T12:43:28Z</time>
      </trkpt>
      <trkpt lat="43.92993" lon="7.16459">
        <ele>727.86</ele>
        <time>2015-03-09T12:43:52Z</time>
      </trkpt>
      <trkpt lat="43.92993" lon="7.16459">
        <ele>727.86</ele>
        <time>2015-03-09T12:44:15Z</time>
      </trkpt>
      <trkpt lat="43.92993" lon="7.1646">
        <ele>728.82</ele>
        <time>2015-03-09T12:44:27Z</time>
      </trkpt>
      <trkpt lat="43.92992" lon="7.1646">
        <ele>728.34</ele>
        <time>2015-03-09T12:44:42Z</time>
      </trkpt>
      <trkpt lat="43.92994" lon="7.16459">
        <ele>727.86</ele>
        <time>2015-03-09T12:44:55Z</time>
      </trkpt>
      <trkpt lat="43.92994" lon="7.16459">
        <ele>728.34</ele>
        <time>2015-03-09T12:45:15Z</time>
      </trkpt>
      <trkpt lat="43.92994" lon="7.1646">
        <ele>728.34</ele>
        <time>2015-03-09T12:45:40Z</time>
      </trkpt>
      <trkpt lat="43.92994" lon="7.1646">
        <ele>728.34</ele>
        <time>2015-03-09T12:46:00Z</time>
      </trkpt>
      <trkpt lat="43.92993" lon="7.16459">
        <ele>727.86</ele>
        <time>2015-03-09T12:46:24Z</time>
      </trkpt>
      <trkpt lat="43.92995" lon="7.16457">
        <ele>729.3</ele>
        <time>2015-03-09T12:46:40Z</time>
      </trkpt>
      <trkpt lat="43.93" lon="7.16443">
        <ele>728.82</ele>
        <time>2015-03-09T12:46:54Z</time>
      </trkpt>
      <trkpt lat="43.93006" lon="7.16432">
        <ele>729.3</ele>
        <time>2015-03-09T12:47:06Z</time>
      </trkpt>
      <trkpt lat="43.93007" lon="7.1643">
        <ele>728.82</ele>
        <time>2015-03-09T12:47:08Z</time>
      </trkpt>
      <trkpt lat="43.93008" lon="7.16426">
        <ele>728.82</ele>
        <time>2015-03-09T12:47:11Z</time>
      </trkpt>
      <trkpt lat="43.9302" lon="7.16434">
        <ele>727.86</ele>
        <time>2015-03-09T12:47:24Z</time>
      </trkpt>
      <trkpt lat="43.93027" lon="7.16438">
        <ele>727.86</ele>
        <time>2015-03-09T12:47:34Z</time>
      </trkpt>
      <trkpt lat="43.93029" lon="7.16438">
        <ele>726.41</ele>
        <time>2015-03-09T12:47:37Z</time>
      </trkpt>
      <trkpt lat="43.93031" lon="7.16437">
        <ele>726.41</ele>
        <time>2015-03-09T12:47:39Z</time>
      </trkpt>
      <trkpt lat="43.93036" lon="7.16442">
        <ele>724.97</ele>
        <time>2015-03-09T12:47:51Z</time>
      </trkpt>
      <trkpt lat="43.9304" lon="7.16451">
        <ele>723.05</ele>
        <time>2015-03-09T12:48:04Z</time>
      </trkpt>
      <trkpt lat="43.93041" lon="7.16461">
        <ele>720.65</ele>
        <time>2015-03-09T12:48:15Z</time>
      </trkpt>
      <trkpt lat="43.93044" lon="7.16459">
        <ele>718.24</ele>
        <time>2015-03-09T12:48:24Z</time>
      </trkpt>
      <trkpt lat="43.93046" lon="7.16456">
        <ele>717.28</ele>
        <time>2015-03-09T12:48:28Z</time>
      </trkpt>
      <trkpt lat="43.93052" lon="7.1645">
        <ele>714.4</ele>
        <time>2015-03-09T12:48:40Z</time>
      </trkpt>
      <trkpt lat="43.93055" lon="7.16448">
        <ele>713.44</ele>
        <time>2015-03-09T12:48:44Z</time>
      </trkpt>
      <trkpt lat="43.9306" lon="7.1644">
        <ele>711.99</ele>
        <time>2015-03-09T12:48:51Z</time>
      </trkpt>
      <trkpt lat="43.93067" lon="7.16427">
        <ele>711.03</ele>
        <time>2015-03-09T12:49:02Z</time>
      </trkpt>
      <trkpt lat="43.93075" lon="7.16417">
        <ele>709.11</ele>
        <time>2015-03-09T12:49:13Z</time>
      </trkpt>
      <trkpt lat="43.9308" lon="7.16406">
        <ele>707.67</ele>
        <time>2015-03-09T12:49:23Z</time>
      </trkpt>
      <trkpt lat="43.93086" lon="7.16393">
        <ele>705.26</ele>
        <time>2015-03-09T12:49:36Z</time>
      </trkpt>
      <trkpt lat="43.93082" lon="7.16379">
        <ele>704.3</ele>
        <time>2015-03-09T12:49:46Z</time>
      </trkpt>
      <trkpt lat="43.9308" lon="7.16374">
        <ele>703.82</ele>
        <time>2015-03-09T12:49:50Z</time>
      </trkpt>
      <trkpt lat="43.93076" lon="7.1636">
        <ele>702.38</ele>
        <time>2015-03-09T12:50:01Z</time>
      </trkpt>
      <trkpt lat="43.93078" lon="7.16342">
        <ele>699.02</ele>
        <time>2015-03-09T12:50:13Z</time>
      </trkpt>
      <trkpt lat="43.93079" lon="7.16335">
        <ele>697.57</ele>
        <time>2015-03-09T12:50:19Z</time>
      </trkpt>
      <trkpt lat="43.93076" lon="7.1632">
        <ele>694.69</ele>
        <time>2015-03-09T12:50:31Z</time>
      </trkpt>
      <trkpt lat="43.93076" lon="7.16308">
        <ele>691.33</ele>
        <time>2015-03-09T12:50:43Z</time>
      </trkpt>
      <trkpt lat="43.93076" lon="7.16297">
        <ele>688.92</ele>
        <time>2015-03-09T12:50:53Z</time>
      </trkpt>
      <trkpt lat="43.93078" lon="7.16289">
        <ele>686.52</ele>
        <time>2015-03-09T12:51:01Z</time>
      </trkpt>
      <trkpt lat="43.9308" lon="7.16277">
        <ele>683.63</ele>
        <time>2015-03-09T12:51:12Z</time>
      </trkpt>
      <trkpt lat="43.93082" lon="7.16271">
        <ele>682.19</ele>
        <time>2015-03-09T12:51:18Z</time>
      </trkpt>
      <trkpt lat="43.93087" lon="7.16259">
        <ele>679.31</ele>
        <time>2015-03-09T12:51:29Z</time>
      </trkpt>
      <trkpt lat="43.93093" lon="7.16249">
        <ele>677.39</ele>
        <time>2015-03-09T12:51:39Z</time>
      </trkpt>
      <trkpt lat="43.931" lon="7.16237">
        <ele>675.46</ele>
        <time>2015-03-09T12:51:50Z</time>
      </trkpt>
      <trkpt lat="43.93106" lon="7.16234">
        <ele>674.5</ele>
        <time>2015-03-09T12:51:55Z</time>
      </trkpt>
      <trkpt lat="43.93111" lon="7.16225">
        <ele>675.94</ele>
        <time>2015-03-09T12:52:04Z</time>
      </trkpt>
      <trkpt lat="43.93113" lon="7.16224">
        <ele>676.91</ele>
        <time>2015-03-09T12:52:06Z</time>
      </trkpt>
      <trkpt lat="43.93118" lon="7.16216">
        <ele>679.79</ele>
        <time>2015-03-09T12:52:17Z</time>
      </trkpt>
      <trkpt lat="43.93123" lon="7.16209">
        <ele>681.23</ele>
        <time>2015-03-09T12:52:26Z</time>
      </trkpt>
      <trkpt lat="43.93125" lon="7.16208">
        <ele>680.27</ele>
        <time>2015-03-09T12:52:43Z</time>
      </trkpt>
      <trkpt lat="43.93126" lon="7.1621">
        <ele>680.75</ele>
        <time>2015-03-09T12:52:51Z</time>
      </trkpt>
      <trkpt lat="43.93126" lon="7.16208">
        <ele>679.79</ele>
        <time>2015-03-09T12:53:08Z</time>
      </trkpt>
      <trkpt lat="43.93126" lon="7.16208">
        <ele>679.79</ele>
        <time>2015-03-09T12:53:09Z</time>
      </trkpt>
      <trkpt lat="43.9313" lon="7.16206">
        <ele>679.79</ele>
        <time>2015-03-09T12:53:17Z</time>
      </trkpt>
      <trkpt lat="43.9313" lon="7.16205">
        <ele>679.79</ele>
        <time>2015-03-09T12:53:32Z</time>
      </trkpt>
      <trkpt lat="43.9313" lon="7.16207">
        <ele>679.31</ele>
        <time>2015-03-09T12:53:42Z</time>
      </trkpt>
      <trkpt lat="43.93125" lon="7.16212">
        <ele>680.27</ele>
        <time>2015-03-09T12:53:51Z</time>
      </trkpt>
      <trkpt lat="43.93122" lon="7.16216">
        <ele>680.27</ele>
        <time>2015-03-09T12:53:55Z</time>
      </trkpt>
      <trkpt lat="43.93118" lon="7.16224">
        <ele>678.83</ele>
        <time>2015-03-09T12:54:05Z</time>
      </trkpt>
      <trkpt lat="43.93115" lon="7.16228">
        <ele>676.91</ele>
        <time>2015-03-09T12:54:13Z</time>
      </trkpt>
      <trkpt lat="43.93115" lon="7.16228">
        <ele>675.94</ele>
        <time>2015-03-09T12:54:17Z</time>
      </trkpt>
      <trkpt lat="43.93112" lon="7.16234">
        <ele>674.5</ele>
        <time>2015-03-09T12:54:25Z</time>
      </trkpt>
      <trkpt lat="43.93116" lon="7.16233">
        <ele>674.02</ele>
        <time>2015-03-09T12:54:30Z</time>
      </trkpt>
      <trkpt lat="43.93124" lon="7.16225">
        <ele>672.1</ele>
        <time>2015-03-09T12:54:41Z</time>
      </trkpt>
      <trkpt lat="43.93132" lon="7.16216">
        <ele>671.14</ele>
        <time>2015-03-09T12:54:51Z</time>
      </trkpt>
      <trkpt lat="43.93139" lon="7.16209">
        <ele>670.66</ele>
        <time>2015-03-09T12:54:59Z</time>
      </trkpt>
      <trkpt lat="43.93147" lon="7.16198">
        <ele>669.7</ele>
        <time>2015-03-09T12:55:11Z</time>
      </trkpt>
      <trkpt lat="43.9315" lon="7.16196">
        <ele>669.7</ele>
        <time>2015-03-09T12:55:14Z</time>
      </trkpt>
      <trkpt lat="43.93156" lon="7.16188">
        <ele>669.22</ele>
        <time>2015-03-09T12:55:24Z</time>
      </trkpt>
      <trkpt lat="43.93158" lon="7.16186">
        <ele>669.22</ele>
        <time>2015-03-09T12:55:37Z</time>
      </trkpt>
      <trkpt lat="43.93162" lon="7.16177">
        <ele>669.22</ele>
        <time>2015-03-09T12:55:48Z</time>
      </trkpt>
      <trkpt lat="43.93168" lon="7.16164">
        <ele>668.25</ele>
        <time>2015-03-09T12:55:59Z</time>
      </trkpt>
      <trkpt lat="43.93175" lon="7.16154">
        <ele>666.81</ele>
        <time>2015-03-09T12:56:10Z</time>
      </trkpt>
      <trkpt lat="43.93182" lon="7.16147">
        <ele>665.37</ele>
        <time>2015-03-09T12:56:22Z</time>
      </trkpt>
      <trkpt lat="43.93191" lon="7.1614">
        <ele>664.41</ele>
        <time>2015-03-09T12:56:33Z</time>
      </trkpt>
      <trkpt lat="43.93196" lon="7.16124">
        <ele>662.49</ele>
        <time>2015-03-09T12:56:46Z</time>
      </trkpt>
      <trkpt lat="43.932" lon="7.16115">
        <ele>661.04</ele>
        <time>2015-03-09T12:56:54Z</time>
      </trkpt>
      <trkpt lat="43.93204" lon="7.16102">
        <ele>659.12</ele>
        <time>2015-03-09T12:57:04Z</time>
      </trkpt>
      <trkpt lat="43.93209" lon="7.1609">
        <ele>657.68</ele>
        <time>2015-03-09T12:57:14Z</time>
      </trkpt>
      <trkpt lat="43.93213" lon="7.16075">
        <ele>655.76</ele>
        <time>2015-03-09T12:57:25Z</time>
      </trkpt>
      <trkpt lat="43.93214" lon="7.16073">
        <ele>655.28</ele>
        <time>2015-03-09T12:57:27Z</time>
      </trkpt>
      <trkpt lat="43.93216" lon="7.16068">
        <ele>654.31</ele>
        <time>2015-03-09T12:57:31Z</time>
      </trkpt>
      <trkpt lat="43.93222" lon="7.16053">
        <ele>651.43</ele>
        <time>2015-03-09T12:57:43Z</time>
      </trkpt>
      <trkpt lat="43.93228" lon="7.16042">
        <ele>649.03</ele>
        <time>2015-03-09T12:57:53Z</time>
      </trkpt>
      <trkpt lat="43.9323" lon="7.16035">
        <ele>648.07</ele>
        <time>2015-03-09T12:58:02Z</time>
      </trkpt>
      <trkpt lat="43.93229" lon="7.1603">
        <ele>649.03</ele>
        <time>2015-03-09T12:58:11Z</time>
      </trkpt>
      <trkpt lat="43.93229" lon="7.16029">
        <ele>649.03</ele>
        <time>2015-03-09T12:58:24Z</time>
      </trkpt>
      <trkpt lat="43.9323" lon="7.1603">
        <ele>649.51</ele>
        <time>2015-03-09T12:58:48Z</time>
      </trkpt>
      <trkpt lat="43.93233" lon="7.16032">
        <ele>649.51</ele>
        <time>2015-03-09T12:58:57Z</time>
      </trkpt>
      <trkpt lat="43.93238" lon="7.1603">
        <ele>647.59</ele>
        <time>2015-03-09T12:59:08Z</time>
      </trkpt>
      <trkpt lat="43.93242" lon="7.16022">
        <ele>646.14</ele>
        <time>2015-03-09T12:59:17Z</time>
      </trkpt>
      <trkpt lat="43.93247" lon="7.16011">
        <ele>644.22</ele>
        <time>2015-03-09T12:59:28Z</time>
      </trkpt>
      <trkpt lat="43.93255" lon="7.16001">
        <ele>642.78</ele>
        <time>2015-03-09T12:59:38Z</time>
      </trkpt>
      <trkpt lat="43.93266" lon="7.1599">
        <ele>641.34</ele>
        <time>2015-03-09T12:59:49Z</time>
      </trkpt>
      <trkpt lat="43.93273" lon="7.15978">
        <ele>641.34</ele>
        <time>2015-03-09T12:59:59Z</time>
      </trkpt>
      <trkpt lat="43.93274" lon="7.15976">
        <ele>640.86</ele>
        <time>2015-03-09T13:00:01Z</time>
      </trkpt>
      <trkpt lat="43.9328" lon="7.15971">
        <ele>640.86</ele>
        <time>2015-03-09T13:00:07Z</time>
      </trkpt>
      <trkpt lat="43.93283" lon="7.15967">
        <ele>641.34</ele>
        <time>2015-03-09T13:00:11Z</time>
      </trkpt>
      <trkpt lat="43.93288" lon="7.15963">
        <ele>641.34</ele>
        <time>2015-03-09T13:00:17Z</time>
      </trkpt>
      <trkpt lat="43.93293" lon="7.15958">
        <ele>640.86</ele>
        <time>2015-03-09T13:00:22Z</time>
      </trkpt>
      <trkpt lat="43.933" lon="7.15948">
        <ele>640.38</ele>
        <time>2015-03-09T13:00:34Z</time>
      </trkpt>
      <trkpt lat="43.93304" lon="7.15937">
        <ele>640.86</ele>
        <time>2015-03-09T13:00:44Z</time>
      </trkpt>
      <trkpt lat="43.93304" lon="7.15936">
        <ele>640.86</ele>
        <time>2015-03-09T13:00:45Z</time>
      </trkpt>
      <trkpt lat="43.93311" lon="7.15926">
        <ele>641.34</ele>
        <time>2015-03-09T13:00:55Z</time>
      </trkpt>
      <trkpt lat="43.93318" lon="7.15916">
        <ele>643.74</ele>
        <time>2015-03-09T13:01:05Z</time>
      </trkpt>
      <trkpt lat="43.93321" lon="7.15911">
        <ele>644.22</ele>
        <time>2015-03-09T13:01:11Z</time>
      </trkpt>
      <trkpt lat="43.93327" lon="7.15905">
        <ele>645.66</ele>
        <time>2015-03-09T13:01:19Z</time>
      </trkpt>
      <trkpt lat="43.93335" lon="7.15893">
        <ele>647.1</ele>
        <time>2015-03-09T13:01:30Z</time>
      </trkpt>
      <trkpt lat="43.93339" lon="7.15887">
        <ele>648.07</ele>
        <time>2015-03-09T13:01:38Z</time>
      </trkpt>
      <trkpt lat="43.93339" lon="7.15886">
        <ele>648.07</ele>
        <time>2015-03-09T13:01:40Z</time>
      </trkpt>
      <trkpt lat="43.93343" lon="7.15871">
        <ele>648.55</ele>
        <time>2015-03-09T13:01:51Z</time>
      </trkpt>
      <trkpt lat="43.93344" lon="7.15869">
        <ele>649.03</ele>
        <time>2015-03-09T13:01:53Z</time>
      </trkpt>
      <trkpt lat="43.93349" lon="7.15856">
        <ele>649.03</ele>
        <time>2015-03-09T13:02:03Z</time>
      </trkpt>
      <trkpt lat="43.93356" lon="7.15844">
        <ele>649.03</ele>
        <time>2015-03-09T13:02:14Z</time>
      </trkpt>
      <trkpt lat="43.93362" lon="7.15836">
        <ele>649.03</ele>
        <time>2015-03-09T13:02:23Z</time>
      </trkpt>
      <trkpt lat="43.93364" lon="7.15834">
        <ele>648.55</ele>
        <time>2015-03-09T13:02:35Z</time>
      </trkpt>
      <trkpt lat="43.93364" lon="7.15834">
        <ele>649.03</ele>
        <time>2015-03-09T13:02:37Z</time>
      </trkpt>
      <trkpt lat="43.93367" lon="7.15834">
        <ele>648.07</ele>
        <time>2015-03-09T13:02:51Z</time>
      </trkpt>
      <trkpt lat="43.93368" lon="7.15834">
        <ele>648.07</ele>
        <time>2015-03-09T13:03:05Z</time>
      </trkpt>
      <trkpt lat="43.93368" lon="7.15834">
        <ele>648.07</ele>
        <time>2015-03-09T13:03:23Z</time>
      </trkpt>
      <trkpt lat="43.93368" lon="7.15834">
        <ele>648.07</ele>
        <time>2015-03-09T13:03:44Z</time>
      </trkpt>
      <trkpt lat="43.93375" lon="7.15829">
        <ele>647.59</ele>
        <time>2015-03-09T13:03:56Z</time>
      </trkpt>
      <trkpt lat="43.93385" lon="7.15823">
        <ele>648.07</ele>
        <time>2015-03-09T13:04:08Z</time>
      </trkpt>
      <trkpt lat="43.93395" lon="7.15818">
        <ele>647.59</ele>
        <time>2015-03-09T13:04:18Z</time>
      </trkpt>
      <trkpt lat="43.93405" lon="7.1581">
        <ele>647.59</ele>
        <time>2015-03-09T13:04:29Z</time>
      </trkpt>
      <trkpt lat="43.93412" lon="7.15804">
        <ele>647.59</ele>
        <time>2015-03-09T13:04:39Z</time>
      </trkpt>
      <trkpt lat="43.93421" lon="7.15797">
        <ele>646.14</ele>
        <time>2015-03-09T13:04:49Z</time>
      </trkpt>
      <trkpt lat="43.93427" lon="7.1579">
        <ele>645.66</ele>
        <time>2015-03-09T13:04:55Z</time>
      </trkpt>
      <trkpt lat="43.93431" lon="7.15782">
        <ele>644.7</ele>
        <time>2015-03-09T13:05:01Z</time>
      </trkpt>
      <trkpt lat="43.93445" lon="7.15775">
        <ele>644.22</ele>
        <time>2015-03-09T13:05:13Z</time>
      </trkpt>
      <trkpt lat="43.93453" lon="7.15768">
        <ele>643.26</ele>
        <time>2015-03-09T13:05:23Z</time>
      </trkpt>
      <trkpt lat="43.93464" lon="7.15761">
        <ele>643.26</ele>
        <time>2015-03-09T13:05:34Z</time>
      </trkpt>
      <trkpt lat="43.93474" lon="7.15755">
        <ele>642.3</ele>
        <time>2015-03-09T13:05:44Z</time>
      </trkpt>
      <trkpt lat="43.93481" lon="7.1575">
        <ele>640.86</ele>
        <time>2015-03-09T13:05:54Z</time>
      </trkpt>
      <trkpt lat="43.93489" lon="7.15742">
        <ele>639.89</ele>
        <time>2015-03-09T13:06:03Z</time>
      </trkpt>
      <trkpt lat="43.93499" lon="7.15736">
        <ele>638.45</ele>
        <time>2015-03-09T13:06:14Z</time>
      </trkpt>
      <trkpt lat="43.9351" lon="7.1573">
        <ele>637.01</ele>
        <time>2015-03-09T13:06:25Z</time>
      </trkpt>
      <trkpt lat="43.93524" lon="7.15719">
        <ele>636.05</ele>
        <time>2015-03-09T13:06:37Z</time>
      </trkpt>
      <trkpt lat="43.93533" lon="7.1571">
        <ele>635.57</ele>
        <time>2015-03-09T13:06:48Z</time>
      </trkpt>
      <trkpt lat="43.93541" lon="7.15701">
        <ele>635.09</ele>
        <time>2015-03-09T13:06:59Z</time>
      </trkpt>
      <trkpt lat="43.93544" lon="7.1569">
        <ele>634.13</ele>
        <time>2015-03-09T13:07:10Z</time>
      </trkpt>
      <trkpt lat="43.93547" lon="7.15674">
        <ele>633.65</ele>
        <time>2015-03-09T13:07:21Z</time>
      </trkpt>
      <trkpt lat="43.93547" lon="7.1567">
        <ele>633.65</ele>
        <time>2015-03-09T13:07:23Z</time>
      </trkpt>
      <trkpt lat="43.9355" lon="7.15649">
        <ele>634.13</ele>
        <time>2015-03-09T13:07:35Z</time>
      </trkpt>
      <trkpt lat="43.93551" lon="7.15642">
        <ele>634.61</ele>
        <time>2015-03-09T13:07:39Z</time>
      </trkpt>
      <trkpt lat="43.93553" lon="7.15624">
        <ele>636.05</ele>
        <time>2015-03-09T13:07:51Z</time>
      </trkpt>
      <trkpt lat="43.93554" lon="7.15619">
        <ele>636.53</ele>
        <time>2015-03-09T13:07:57Z</time>
      </trkpt>
      <trkpt lat="43.93556" lon="7.15611">
        <ele>637.01</ele>
        <time>2015-03-09T13:08:02Z</time>
      </trkpt>
      <trkpt lat="43.93558" lon="7.15591">
        <ele>638.45</ele>
        <time>2015-03-09T13:08:15Z</time>
      </trkpt>
      <trkpt lat="43.93559" lon="7.1558">
        <ele>638.93</ele>
        <time>2015-03-09T13:08:23Z</time>
      </trkpt>
      <trkpt lat="43.93559" lon="7.15568">
        <ele>639.41</ele>
        <time>2015-03-09T13:08:32Z</time>
      </trkpt>
      <trkpt lat="43.93559" lon="7.15566">
        <ele>639.89</ele>
        <time>2015-03-09T13:08:33Z</time>
      </trkpt>
      <trkpt lat="43.93556" lon="7.15549">
        <ele>639.89</ele>
        <time>2015-03-09T13:08:43Z</time>
      </trkpt>
      <trkpt lat="43.93553" lon="7.15536">
        <ele>640.38</ele>
        <time>2015-03-09T13:08:53Z</time>
      </trkpt>
      <trkpt lat="43.93553" lon="7.15529">
        <ele>640.38</ele>
        <time>2015-03-09T13:08:58Z</time>
      </trkpt>
      <trkpt lat="43.93557" lon="7.15515">
        <ele>639.41</ele>
        <time>2015-03-09T13:09:11Z</time>
      </trkpt>
      <trkpt lat="43.93562" lon="7.1551">
        <ele>638.45</ele>
        <time>2015-03-09T13:09:17Z</time>
      </trkpt>
      <trkpt lat="43.93568" lon="7.155">
        <ele>637.49</ele>
        <time>2015-03-09T13:09:27Z</time>
      </trkpt>
      <trkpt lat="43.93572" lon="7.15488">
        <ele>636.53</ele>
        <time>2015-03-09T13:09:35Z</time>
      </trkpt>
      <trkpt lat="43.93575" lon="7.15479">
        <ele>636.05</ele>
        <time>2015-03-09T13:09:43Z</time>
      </trkpt>
      <trkpt lat="43.93576" lon="7.15472">
        <ele>636.05</ele>
        <time>2015-03-09T13:09:50Z</time>
      </trkpt>
      <trkpt lat="43.93575" lon="7.15459">
        <ele>635.57</ele>
        <time>2015-03-09T13:09:57Z</time>
      </trkpt>
      <trkpt lat="43.93578" lon="7.15448">
        <ele>635.57</ele>
        <time>2015-03-09T13:10:04Z</time>
      </trkpt>
      <trkpt lat="43.93581" lon="7.15433">
        <ele>634.61</ele>
        <time>2015-03-09T13:10:12Z</time>
      </trkpt>
      <trkpt lat="43.93591" lon="7.15419">
        <ele>634.61</ele>
        <time>2015-03-09T13:10:21Z</time>
      </trkpt>
      <trkpt lat="43.93593" lon="7.15416">
        <ele>634.61</ele>
        <time>2015-03-09T13:10:24Z</time>
      </trkpt>
      <trkpt lat="43.93596" lon="7.1541">
        <ele>634.13</ele>
        <time>2015-03-09T13:10:28Z</time>
      </trkpt>
      <trkpt lat="43.93601" lon="7.15399">
        <ele>633.65</ele>
        <time>2015-03-09T13:10:35Z</time>
      </trkpt>
      <trkpt lat="43.93604" lon="7.15387">
        <ele>634.13</ele>
        <time>2015-03-09T13:10:44Z</time>
      </trkpt>
      <trkpt lat="43.93605" lon="7.15382">
        <ele>634.13</ele>
        <time>2015-03-09T13:10:47Z</time>
      </trkpt>
      <trkpt lat="43.93598" lon="7.15361">
        <ele>633.17</ele>
        <time>2015-03-09T13:10:59Z</time>
      </trkpt>
      <trkpt lat="43.93589" lon="7.1535">
        <ele>632.68</ele>
        <time>2015-03-09T13:11:09Z</time>
      </trkpt>
      <trkpt lat="43.9358" lon="7.15337">
        <ele>631.24</ele>
        <time>2015-03-09T13:11:20Z</time>
      </trkpt>
      <trkpt lat="43.93574" lon="7.15321">
        <ele>629.8</ele>
        <time>2015-03-09T13:11:31Z</time>
      </trkpt>
      <trkpt lat="43.93575" lon="7.15309">
        <ele>628.36</ele>
        <time>2015-03-09T13:11:42Z</time>
      </trkpt>
      <trkpt lat="43.93575" lon="7.15298">
        <ele>626.44</ele>
        <time>2015-03-09T13:11:53Z</time>
      </trkpt>
      <trkpt lat="43.93574" lon="7.15288">
        <ele>624.99</ele>
        <time>2015-03-09T13:12:00Z</time>
      </trkpt>
      <trkpt lat="43.93574" lon="7.15285">
        <ele>624.51</ele>
        <time>2015-03-09T13:12:02Z</time>
      </trkpt>
      <trkpt lat="43.93574" lon="7.1528">
        <ele>624.03</ele>
        <time>2015-03-09T13:12:05Z</time>
      </trkpt>
      <trkpt lat="43.93575" lon="7.15277">
        <ele>623.55</ele>
        <time>2015-03-09T13:12:07Z</time>
      </trkpt>
      <trkpt lat="43.93576" lon="7.15264">
        <ele>623.07</ele>
        <time>2015-03-09T13:12:16Z</time>
      </trkpt>
      <trkpt lat="43.93575" lon="7.15256">
        <ele>624.03</ele>
        <time>2015-03-09T13:12:21Z</time>
      </trkpt>
      <trkpt lat="43.93573" lon="7.1524">
        <ele>623.55</ele>
        <time>2015-03-09T13:12:32Z</time>
      </trkpt>
      <trkpt lat="43.93573" lon="7.15232">
        <ele>624.03</ele>
        <time>2015-03-09T13:12:37Z</time>
      </trkpt>
      <trkpt lat="43.93572" lon="7.15216">
        <ele>624.51</ele>
        <time>2015-03-09T13:12:47Z</time>
      </trkpt>
      <trkpt lat="43.93569" lon="7.15203">
        <ele>624.51</ele>
        <time>2015-03-09T13:12:57Z</time>
      </trkpt>
      <trkpt lat="43.93566" lon="7.15187">
        <ele>622.59</ele>
        <time>2015-03-09T13:13:07Z</time>
      </trkpt>
      <trkpt lat="43.93565" lon="7.15181">
        <ele>621.15</ele>
        <time>2015-03-09T13:13:19Z</time>
      </trkpt>
      <trkpt lat="43.93567" lon="7.15181">
        <ele>620.67</ele>
        <time>2015-03-09T13:13:36Z</time>
      </trkpt>
      <trkpt lat="43.93567" lon="7.15181">
        <ele>620.19</ele>
        <time>2015-03-09T13:13:50Z</time>
      </trkpt>
      <trkpt lat="43.93572" lon="7.15183">
        <ele>619.23</ele>
        <time>2015-03-09T13:14:02Z</time>
      </trkpt>
      <trkpt lat="43.93581" lon="7.15187">
        <ele>616.82</ele>
        <time>2015-03-09T13:14:15Z</time>
      </trkpt>
      <trkpt lat="43.93586" lon="7.15187">
        <ele>614.9</ele>
        <time>2015-03-09T13:14:24Z</time>
      </trkpt>
      <trkpt lat="43.93594" lon="7.15194">
        <ele>614.9</ele>
        <time>2015-03-09T13:14:34Z</time>
      </trkpt>
      <trkpt lat="43.93604" lon="7.15197">
        <ele>612.98</ele>
        <time>2015-03-09T13:14:45Z</time>
      </trkpt>
      <trkpt lat="43.93615" lon="7.152">
        <ele>610.09</ele>
        <time>2015-03-09T13:14:58Z</time>
      </trkpt>
      <trkpt lat="43.93623" lon="7.15201">
        <ele>607.69</ele>
        <time>2015-03-09T13:15:09Z</time>
      </trkpt>
      <trkpt lat="43.9363" lon="7.15203">
        <ele>604.81</ele>
        <time>2015-03-09T13:15:21Z</time>
      </trkpt>
      <trkpt lat="43.9364" lon="7.15207">
        <ele>601.92</ele>
        <time>2015-03-09T13:15:32Z</time>
      </trkpt>
      <trkpt lat="43.93658" lon="7.15213">
        <ele>600.48</ele>
        <time>2015-03-09T13:15:43Z</time>
      </trkpt>
      <trkpt lat="43.93667" lon="7.15211">
        <ele>599.04</ele>
        <time>2015-03-09T13:15:53Z</time>
      </trkpt>
      <trkpt lat="43.93675" lon="7.15204">
        <ele>597.6</ele>
        <time>2015-03-09T13:16:04Z</time>
      </trkpt>
      <trkpt lat="43.93677" lon="7.15199">
        <ele>596.15</ele>
        <time>2015-03-09T13:16:14Z</time>
      </trkpt>
      <trkpt lat="43.93687" lon="7.15186">
        <ele>594.71</ele>
        <time>2015-03-09T13:16:25Z</time>
      </trkpt>
      <trkpt lat="43.93691" lon="7.15183">
        <ele>594.23</ele>
        <time>2015-03-09T13:16:29Z</time>
      </trkpt>
      <trkpt lat="43.93693" lon="7.1518">
        <ele>593.75</ele>
        <time>2015-03-09T13:16:31Z</time>
      </trkpt>
      <trkpt lat="43.93697" lon="7.15176">
        <ele>593.27</ele>
        <time>2015-03-09T13:16:34Z</time>
      </trkpt>
      <trkpt lat="43.93713" lon="7.15162">
        <ele>591.35</ele>
        <time>2015-03-09T13:16:45Z</time>
      </trkpt>
      <trkpt lat="43.93723" lon="7.15153">
        <ele>588.46</ele>
        <time>2015-03-09T13:16:58Z</time>
      </trkpt>
      <trkpt lat="43.93734" lon="7.15156">
        <ele>586.06</ele>
        <time>2015-03-09T13:17:09Z</time>
      </trkpt>
      <trkpt lat="43.93745" lon="7.15165">
        <ele>582.7</ele>
        <time>2015-03-09T13:17:22Z</time>
      </trkpt>
      <trkpt lat="43.93751" lon="7.15171">
        <ele>579.81</ele>
        <time>2015-03-09T13:17:34Z</time>
      </trkpt>
      <trkpt lat="43.93753" lon="7.15172">
        <ele>578.85</ele>
        <time>2015-03-09T13:17:37Z</time>
      </trkpt>
      <trkpt lat="43.93761" lon="7.15179">
        <ele>575.97</ele>
        <time>2015-03-09T13:17:48Z</time>
      </trkpt>
      <trkpt lat="43.93767" lon="7.15185">
        <ele>572.6</ele>
        <time>2015-03-09T13:18:01Z</time>
      </trkpt>
      <trkpt lat="43.9377" lon="7.15186">
        <ele>572.12</ele>
        <time>2015-03-09T13:18:03Z</time>
      </trkpt>
      <trkpt lat="43.93776" lon="7.15193">
        <ele>569.24</ele>
        <time>2015-03-09T13:18:15Z</time>
      </trkpt>
      <trkpt lat="43.93781" lon="7.15201">
        <ele>565.87</ele>
        <time>2015-03-09T13:18:27Z</time>
      </trkpt>
      <trkpt lat="43.93785" lon="7.15193">
        <ele>563.47</ele>
        <time>2015-03-09T13:18:36Z</time>
      </trkpt>
      <trkpt lat="43.9378" lon="7.15184">
        <ele>562.03</ele>
        <time>2015-03-09T13:18:47Z</time>
      </trkpt>
      <trkpt lat="43.93784" lon="7.15185">
        <ele>560.11</ele>
        <time>2015-03-09T13:18:55Z</time>
      </trkpt>
      <trkpt lat="43.93789" lon="7.15192">
        <ele>557.7</ele>
        <time>2015-03-09T13:19:05Z</time>
      </trkpt>
      <trkpt lat="43.93795" lon="7.15208">
        <ele>554.82</ele>
        <time>2015-03-09T13:19:17Z</time>
      </trkpt>
      <trkpt lat="43.93801" lon="7.15218">
        <ele>551.45</ele>
        <time>2015-03-09T13:19:28Z</time>
      </trkpt>
      <trkpt lat="43.93809" lon="7.15229">
        <ele>549.53</ele>
        <time>2015-03-09T13:19:38Z</time>
      </trkpt>
      <trkpt lat="43.9381" lon="7.15234">
        <ele>548.09</ele>
        <time>2015-03-09T13:19:42Z</time>
      </trkpt>
      <trkpt lat="43.93815" lon="7.15238">
        <ele>547.13</ele>
        <time>2015-03-09T13:19:49Z</time>
      </trkpt>
      <trkpt lat="43.93822" lon="7.1524">
        <ele>546.17</ele>
        <time>2015-03-09T13:19:55Z</time>
      </trkpt>
      <trkpt lat="43.93834" lon="7.15247">
        <ele>544.72</ele>
        <time>2015-03-09T13:20:07Z</time>
      </trkpt>
      <trkpt lat="43.93842" lon="7.15253">
        <ele>542.8</ele>
        <time>2015-03-09T13:20:16Z</time>
      </trkpt>
      <trkpt lat="43.93855" lon="7.15259">
        <ele>540.88</ele>
        <time>2015-03-09T13:20:26Z</time>
      </trkpt>
      <trkpt lat="43.93865" lon="7.15266">
        <ele>538.48</ele>
        <time>2015-03-09T13:20:37Z</time>
      </trkpt>
      <trkpt lat="43.93874" lon="7.15268">
        <ele>536.07</ele>
        <time>2015-03-09T13:20:47Z</time>
      </trkpt>
      <trkpt lat="43.93883" lon="7.15273">
        <ele>533.67</ele>
        <time>2015-03-09T13:20:59Z</time>
      </trkpt>
      <trkpt lat="43.93891" lon="7.15276">
        <ele>531.27</ele>
        <time>2015-03-09T13:21:11Z</time>
      </trkpt>
      <trkpt lat="43.93898" lon="7.15279">
        <ele>529.34</ele>
        <time>2015-03-09T13:21:21Z</time>
      </trkpt>
      <trkpt lat="43.93907" lon="7.15282">
        <ele>525.98</ele>
        <time>2015-03-09T13:21:33Z</time>
      </trkpt>
      <trkpt lat="43.93907" lon="7.15282">
        <ele>525.02</ele>
        <time>2015-03-09T13:21:47Z</time>
      </trkpt>
      <trkpt lat="43.9391" lon="7.15286">
        <ele>525.02</ele>
        <time>2015-03-09T13:22:03Z</time>
      </trkpt>
      <trkpt lat="43.93917" lon="7.15288">
        <ele>525.02</ele>
        <time>2015-03-09T13:22:16Z</time>
      </trkpt>
      <trkpt lat="43.93915" lon="7.15287">
        <ele>525.5</ele>
        <time>2015-03-09T13:22:40Z</time>
      </trkpt>
      <trkpt lat="43.93915" lon="7.15287">
        <ele>525.5</ele>
        <time>2015-03-09T13:23:04Z</time>
      </trkpt>
      <trkpt lat="43.93921" lon="7.1529">
        <ele>525.5</ele>
        <time>2015-03-09T13:23:14Z</time>
      </trkpt>
      <trkpt lat="43.93926" lon="7.15296">
        <ele>525.5</ele>
        <time>2015-03-09T13:23:21Z</time>
      </trkpt>
      <trkpt lat="43.93936" lon="7.15302">
        <ele>525.5</ele>
        <time>2015-03-09T13:23:32Z</time>
      </trkpt>
      <trkpt lat="43.93945" lon="7.15307">
        <ele>525.02</ele>
        <time>2015-03-09T13:23:44Z</time>
      </trkpt>
      <trkpt lat="43.93952" lon="7.15306">
        <ele>524.06</ele>
        <time>2015-03-09T13:23:54Z</time>
      </trkpt>
      <trkpt lat="43.93953" lon="7.15305">
        <ele>524.06</ele>
        <time>2015-03-09T13:23:55Z</time>
      </trkpt>
      <trkpt lat="43.93963" lon="7.153">
        <ele>523.09</ele>
        <time>2015-03-09T13:24:06Z</time>
      </trkpt>
      <trkpt lat="43.93969" lon="7.15298">
        <ele>522.61</ele>
        <time>2015-03-09T13:24:13Z</time>
      </trkpt>
      <trkpt lat="43.93983" lon="7.15293">
        <ele>522.61</ele>
        <time>2015-03-09T13:24:26Z</time>
      </trkpt>
      <trkpt lat="43.93986" lon="7.15292">
        <ele>522.13</ele>
        <time>2015-03-09T13:24:30Z</time>
      </trkpt>
      <trkpt lat="43.93998" lon="7.15285">
        <ele>522.13</ele>
        <time>2015-03-09T13:24:42Z</time>
      </trkpt>
      <trkpt lat="43.9401" lon="7.15281">
        <ele>521.65</ele>
        <time>2015-03-09T13:24:53Z</time>
      </trkpt>
      <trkpt lat="43.94018" lon="7.15278">
        <ele>520.69</ele>
        <time>2015-03-09T13:25:02Z</time>
      </trkpt>
      <trkpt lat="43.9403" lon="7.15277">
        <ele>520.21</ele>
        <time>2015-03-09T13:25:13Z</time>
      </trkpt>
      <trkpt lat="43.94032" lon="7.15276">
        <ele>520.69</ele>
        <time>2015-03-09T13:25:15Z</time>
      </trkpt>
      <trkpt lat="43.94044" lon="7.15265">
        <ele>521.17</ele>
        <time>2015-03-09T13:25:29Z</time>
      </trkpt>
      <trkpt lat="43.94049" lon="7.15265">
        <ele>522.61</ele>
        <time>2015-03-09T13:25:38Z</time>
      </trkpt>
      <trkpt lat="43.94054" lon="7.15267">
        <ele>525.02</ele>
        <time>2015-03-09T13:25:48Z</time>
      </trkpt>
      <trkpt lat="43.94058" lon="7.15258">
        <ele>525.98</ele>
        <time>2015-03-09T13:25:59Z</time>
      </trkpt>
      <trkpt lat="43.94058" lon="7.15254">
        <ele>524.54</ele>
        <time>2015-03-09T13:26:10Z</time>
      </trkpt>
      <trkpt lat="43.94058" lon="7.15252">
        <ele>524.54</ele>
        <time>2015-03-09T13:26:11Z</time>
      </trkpt>
      <trkpt lat="43.94062" lon="7.15241">
        <ele>525.02</ele>
        <time>2015-03-09T13:26:22Z</time>
      </trkpt>
      <trkpt lat="43.9407" lon="7.15232">
        <ele>526.46</ele>
        <time>2015-03-09T13:26:32Z</time>
      </trkpt>
      <trkpt lat="43.94076" lon="7.15225">
        <ele>528.86</ele>
        <time>2015-03-09T13:26:43Z</time>
      </trkpt>
      <trkpt lat="43.94081" lon="7.1522">
        <ele>529.34</ele>
        <time>2015-03-09T13:26:51Z</time>
      </trkpt>
      <trkpt lat="43.94087" lon="7.15217">
        <ele>531.27</ele>
        <time>2015-03-09T13:27:04Z</time>
      </trkpt>
      <trkpt lat="43.94091" lon="7.15218">
        <ele>532.71</ele>
        <time>2015-03-09T13:27:14Z</time>
      </trkpt>
      <trkpt lat="43.941" lon="7.15223">
        <ele>534.63</ele>
        <time>2015-03-09T13:27:30Z</time>
      </trkpt>
      <trkpt lat="43.94107" lon="7.15226">
        <ele>536.07</ele>
        <time>2015-03-09T13:27:41Z</time>
      </trkpt>
      <trkpt lat="43.94116" lon="7.1523">
        <ele>537.03</ele>
        <time>2015-03-09T13:27:50Z</time>
      </trkpt>
      <trkpt lat="43.94136" lon="7.15235">
        <ele>537.99</ele>
        <time>2015-03-09T13:28:04Z</time>
      </trkpt>
      <trkpt lat="43.94146" lon="7.15236">
        <ele>539.44</ele>
        <time>2015-03-09T13:28:14Z</time>
      </trkpt>
      <trkpt lat="43.94156" lon="7.15243">
        <ele>539.92</ele>
        <time>2015-03-09T13:28:25Z</time>
      </trkpt>
      <trkpt lat="43.94156" lon="7.15243">
        <ele>539.92</ele>
        <time>2015-03-09T13:28:26Z</time>
      </trkpt>
      <trkpt lat="43.94165" lon="7.1525">
        <ele>539.92</ele>
        <time>2015-03-09T13:28:35Z</time>
      </trkpt>
      <trkpt lat="43.94175" lon="7.1526">
        <ele>538.96</ele>
        <time>2015-03-09T13:28:47Z</time>
      </trkpt>
      <trkpt lat="43.94191" lon="7.15265">
        <ele>538.48</ele>
        <time>2015-03-09T13:28:59Z</time>
      </trkpt>
      <trkpt lat="43.94201" lon="7.15268">
        <ele>537.99</ele>
        <time>2015-03-09T13:29:09Z</time>
      </trkpt>
      <trkpt lat="43.94209" lon="7.15267">
        <ele>537.51</ele>
        <time>2015-03-09T13:29:18Z</time>
      </trkpt>
      <trkpt lat="43.94217" lon="7.15264">
        <ele>536.07</ele>
        <time>2015-03-09T13:29:30Z</time>
      </trkpt>
      <trkpt lat="43.94221" lon="7.15265">
        <ele>536.07</ele>
        <time>2015-03-09T13:29:34Z</time>
      </trkpt>
      <trkpt lat="43.94232" lon="7.15267">
        <ele>536.07</ele>
        <time>2015-03-09T13:29:46Z</time>
      </trkpt>
      <trkpt lat="43.94239" lon="7.15268">
        <ele>535.11</ele>
        <time>2015-03-09T13:30:00Z</time>
      </trkpt>
      <trkpt lat="43.94249" lon="7.15268">
        <ele>534.63</ele>
        <time>2015-03-09T13:30:12Z</time>
      </trkpt>
      <trkpt lat="43.94256" lon="7.15268">
        <ele>534.63</ele>
        <time>2015-03-09T13:30:23Z</time>
      </trkpt>
      <trkpt lat="43.94257" lon="7.15267">
        <ele>534.63</ele>
        <time>2015-03-09T13:30:25Z</time>
      </trkpt>
      <trkpt lat="43.9427" lon="7.15261">
        <ele>534.63</ele>
        <time>2015-03-09T13:30:33Z</time>
      </trkpt>
      <trkpt lat="43.94274" lon="7.15261">
        <ele>534.63</ele>
        <time>2015-03-09T13:30:35Z</time>
      </trkpt>
      <trkpt lat="43.94288" lon="7.15256">
        <ele>536.07</ele>
        <time>2015-03-09T13:30:45Z</time>
      </trkpt>
      <trkpt lat="43.94296" lon="7.1525">
        <ele>537.51</ele>
        <time>2015-03-09T13:30:54Z</time>
      </trkpt>
      <trkpt lat="43.94305" lon="7.15242">
        <ele>538.96</ele>
        <time>2015-03-09T13:31:05Z</time>
      </trkpt>
      <trkpt lat="43.94308" lon="7.1524">
        <ele>539.44</ele>
        <time>2015-03-09T13:31:08Z</time>
      </trkpt>
      <trkpt lat="43.94311" lon="7.15236">
        <ele>539.92</ele>
        <time>2015-03-09T13:31:12Z</time>
      </trkpt>
      <trkpt lat="43.94314" lon="7.15228">
        <ele>540.88</ele>
        <time>2015-03-09T13:31:19Z</time>
      </trkpt>
      <trkpt lat="43.94315" lon="7.15226">
        <ele>541.36</ele>
        <time>2015-03-09T13:31:21Z</time>
      </trkpt>
      <trkpt lat="43.94317" lon="7.15222">
        <ele>541.84</ele>
        <time>2015-03-09T13:31:25Z</time>
      </trkpt>
      <trkpt lat="43.94318" lon="7.15219">
        <ele>542.8</ele>
        <time>2015-03-09T13:31:28Z</time>
      </trkpt>
      <trkpt lat="43.94327" lon="7.15208">
        <ele>541.84</ele>
        <time>2015-03-09T13:31:37Z</time>
      </trkpt>
      <trkpt lat="43.9433" lon="7.15198">
        <ele>541.36</ele>
        <time>2015-03-09T13:31:44Z</time>
      </trkpt>
      <trkpt lat="43.94338" lon="7.15186">
        <ele>541.36</ele>
        <time>2015-03-09T13:31:55Z</time>
      </trkpt>
      <trkpt lat="43.94341" lon="7.15185">
        <ele>541.36</ele>
        <time>2015-03-09T13:31:57Z</time>
      </trkpt>
      <trkpt lat="43.94353" lon="7.15181">
        <ele>542.8</ele>
        <time>2015-03-09T13:32:08Z</time>
      </trkpt>
      <trkpt lat="43.94366" lon="7.15179">
        <ele>543.28</ele>
        <time>2015-03-09T13:32:18Z</time>
      </trkpt>
      <trkpt lat="43.94376" lon="7.15179">
        <ele>544.72</ele>
        <time>2015-03-09T13:32:30Z</time>
      </trkpt>
      <trkpt lat="43.94381" lon="7.15178">
        <ele>544.24</ele>
        <time>2015-03-09T13:32:35Z</time>
      </trkpt>
      <trkpt lat="43.94391" lon="7.15169">
        <ele>544.72</ele>
        <time>2015-03-09T13:32:47Z</time>
      </trkpt>
      <trkpt lat="43.94397" lon="7.15161">
        <ele>545.2</ele>
        <time>2015-03-09T13:32:57Z</time>
      </trkpt>
      <trkpt lat="43.94405" lon="7.15155">
        <ele>545.69</ele>
        <time>2015-03-09T13:33:07Z</time>
      </trkpt>
      <trkpt lat="43.94411" lon="7.15144">
        <ele>547.61</ele>
        <time>2015-03-09T13:33:18Z</time>
      </trkpt>
      <trkpt lat="43.94413" lon="7.15134">
        <ele>549.53</ele>
        <time>2015-03-09T13:33:29Z</time>
      </trkpt>
      <trkpt lat="43.9442" lon="7.15126">
        <ele>551.93</ele>
        <time>2015-03-09T13:33:41Z</time>
      </trkpt>
      <trkpt lat="43.94424" lon="7.15118">
        <ele>554.34</ele>
        <time>2015-03-09T13:33:50Z</time>
      </trkpt>
      <trkpt lat="43.94427" lon="7.15095">
        <ele>554.34</ele>
        <time>2015-03-09T13:34:00Z</time>
      </trkpt>
      <trkpt lat="43.94434" lon="7.15085">
        <ele>551.93</ele>
        <time>2015-03-09T13:34:11Z</time>
      </trkpt>
      <trkpt lat="43.94444" lon="7.15078">
        <ele>550.97</ele>
        <time>2015-03-09T13:34:22Z</time>
      </trkpt>
      <trkpt lat="43.94457" lon="7.15077">
        <ele>550.49</ele>
        <time>2015-03-09T13:34:34Z</time>
      </trkpt>
      <trkpt lat="43.9447" lon="7.15075">
        <ele>550.49</ele>
        <time>2015-03-09T13:34:46Z</time>
      </trkpt>
      <trkpt lat="43.94477" lon="7.15069">
        <ele>550.01</ele>
        <time>2015-03-09T13:34:53Z</time>
      </trkpt>
      <trkpt lat="43.94485" lon="7.15061">
        <ele>549.53</ele>
        <time>2015-03-09T13:35:01Z</time>
      </trkpt>
      <trkpt lat="43.94491" lon="7.15056">
        <ele>549.53</ele>
        <time>2015-03-09T13:35:14Z</time>
      </trkpt>
      <trkpt lat="43.94494" lon="7.15054">
        <ele>549.05</ele>
        <time>2015-03-09T13:35:32Z</time>
      </trkpt>
      <trkpt lat="43.94497" lon="7.15042">
        <ele>548.09</ele>
        <time>2015-03-09T13:35:41Z</time>
      </trkpt>
      <trkpt lat="43.94499" lon="7.15036">
        <ele>547.61</ele>
        <time>2015-03-09T13:35:45Z</time>
      </trkpt>
      <trkpt lat="43.94507" lon="7.15021">
        <ele>547.13</ele>
        <time>2015-03-09T13:35:57Z</time>
      </trkpt>
      <trkpt lat="43.94511" lon="7.15012">
        <ele>546.65</ele>
        <time>2015-03-09T13:36:04Z</time>
      </trkpt>
      <trkpt lat="43.94518" lon="7.14997">
        <ele>548.09</ele>
        <time>2015-03-09T13:36:17Z</time>
      </trkpt>
      <trkpt lat="43.9452" lon="7.14995">
        <ele>548.57</ele>
        <time>2015-03-09T13:36:19Z</time>
      </trkpt>
      <trkpt lat="43.94532" lon="7.14988">
        <ele>548.57</ele>
        <time>2015-03-09T13:36:31Z</time>
      </trkpt>
      <trkpt lat="43.94539" lon="7.14988">
        <ele>548.09</ele>
        <time>2015-03-09T13:36:41Z</time>
      </trkpt>
      <trkpt lat="43.94545" lon="7.14995">
        <ele>546.17</ele>
        <time>2015-03-09T13:36:50Z</time>
      </trkpt>
      <trkpt lat="43.94555" lon="7.15002">
        <ele>544.24</ele>
        <time>2015-03-09T13:37:00Z</time>
      </trkpt>
      <trkpt lat="43.94556" lon="7.15004">
        <ele>543.76</ele>
        <time>2015-03-09T13:37:02Z</time>
      </trkpt>
      <trkpt lat="43.94561" lon="7.15011">
        <ele>541.84</ele>
        <time>2015-03-09T13:37:12Z</time>
      </trkpt>
      <trkpt lat="43.94563" lon="7.15015">
        <ele>541.36</ele>
        <time>2015-03-09T13:37:20Z</time>
      </trkpt>
      <trkpt lat="43.94563" lon="7.15015">
        <ele>541.84</ele>
        <time>2015-03-09T13:37:36Z</time>
      </trkpt>
    </trkseg>
  </trk>
</gpx>